<?xml version="1.0" encoding="UTF-8" standalone="no" ?>
<gpx xmlns="http://www.topografix.com/GPX/1/1" xmlns:xsi="http://www.w3.org/2001/XMLSchema-instance" xsi:schemaLocation="http://www.topografix.com/GPX/1/1 http://www.topografix.com/GPX/1/1/gpx.xsd" version="1.1" creator="VisuGPX - https://www.visugpx.com">
  <metadata>
    <name>Dans les environs de Paulhiac(47)</name>
    <desc><![CDATA[Mise à part deux montées assez ardues, voilà un tracé sans de trop grosses difficultés.]]></desc>
  </metadata>
  <trk>
    <name><![CDATA[08-DEC-13 12:21:21]]></name>
    <trkseg>
      <trkpt lat="44.58577" lon="0.82482">
        <ele>149.62</ele>
        <time>2013-12-08T08:10:34Z</time>
      </trkpt>
      <trkpt lat="44.58576" lon="0.82484">
        <ele>150.1</ele>
        <time>2013-12-08T08:10:52Z</time>
      </trkpt>
      <trkpt lat="44.58575" lon="0.82483">
        <ele>150.58</ele>
        <time>2013-12-08T08:11:06Z</time>
      </trkpt>
      <trkpt lat="44.58575" lon="0.82483">
        <ele>149.62</ele>
        <time>2013-12-08T08:11:18Z</time>
      </trkpt>
      <trkpt lat="44.58574" lon="0.82483">
        <ele>149.14</ele>
        <time>2013-12-08T08:11:37Z</time>
      </trkpt>
      <trkpt lat="44.58573" lon="0.82483">
        <ele>149.14</ele>
        <time>2013-12-08T08:11:57Z</time>
      </trkpt>
      <trkpt lat="44.58574" lon="0.82482">
        <ele>149.62</ele>
        <time>2013-12-08T08:12:19Z</time>
      </trkpt>
      <trkpt lat="44.58573" lon="0.82483">
        <ele>149.14</ele>
        <time>2013-12-08T08:12:37Z</time>
      </trkpt>
      <trkpt lat="44.58572" lon="0.82482">
        <ele>150.58</ele>
        <time>2013-12-08T08:13:01Z</time>
      </trkpt>
      <trkpt lat="44.58573" lon="0.82483">
        <ele>150.58</ele>
        <time>2013-12-08T08:13:22Z</time>
      </trkpt>
      <trkpt lat="44.58574" lon="0.82482">
        <ele>150.58</ele>
        <time>2013-12-08T08:13:47Z</time>
      </trkpt>
      <trkpt lat="44.58575" lon="0.82484">
        <ele>151.06</ele>
        <time>2013-12-08T08:14:01Z</time>
      </trkpt>
      <trkpt lat="44.58576" lon="0.82486">
        <ele>152.03</ele>
        <time>2013-12-08T08:14:20Z</time>
      </trkpt>
      <trkpt lat="44.58575" lon="0.82488">
        <ele>152.51</ele>
        <time>2013-12-08T08:14:35Z</time>
      </trkpt>
      <trkpt lat="44.58574" lon="0.82489">
        <ele>152.51</ele>
        <time>2013-12-08T08:14:47Z</time>
      </trkpt>
      <trkpt lat="44.5857" lon="0.82495">
        <ele>152.03</ele>
        <time>2013-12-08T08:14:51Z</time>
      </trkpt>
      <trkpt lat="44.58573" lon="0.82497">
        <ele>151.54</ele>
        <time>2013-12-08T08:14:56Z</time>
      </trkpt>
      <trkpt lat="44.586" lon="0.82477">
        <ele>151.06</ele>
        <time>2013-12-08T08:15:09Z</time>
      </trkpt>
      <trkpt lat="44.58655" lon="0.82446">
        <ele>151.06</ele>
        <time>2013-12-08T08:15:25Z</time>
      </trkpt>
      <trkpt lat="44.58692" lon="0.82412">
        <ele>152.03</ele>
        <time>2013-12-08T08:15:38Z</time>
      </trkpt>
      <trkpt lat="44.5872" lon="0.82379">
        <ele>150.58</ele>
        <time>2013-12-08T08:15:49Z</time>
      </trkpt>
      <trkpt lat="44.58743" lon="0.82351">
        <ele>149.62</ele>
        <time>2013-12-08T08:15:59Z</time>
      </trkpt>
      <trkpt lat="44.58776" lon="0.82321">
        <ele>149.14</ele>
        <time>2013-12-08T08:16:12Z</time>
      </trkpt>
      <trkpt lat="44.58804" lon="0.82306">
        <ele>151.06</ele>
        <time>2013-12-08T08:16:23Z</time>
      </trkpt>
      <trkpt lat="44.58818" lon="0.82292">
        <ele>149.62</ele>
        <time>2013-12-08T08:16:29Z</time>
      </trkpt>
      <trkpt lat="44.58857" lon="0.82283">
        <ele>144.34</ele>
        <time>2013-12-08T08:16:40Z</time>
      </trkpt>
      <trkpt lat="44.58924" lon="0.82271">
        <ele>137.61</ele>
        <time>2013-12-08T08:16:52Z</time>
      </trkpt>
      <trkpt lat="44.59005" lon="0.8223">
        <ele>134.72</ele>
        <time>2013-12-08T08:17:10Z</time>
      </trkpt>
      <trkpt lat="44.59066" lon="0.82171">
        <ele>132.8</ele>
        <time>2013-12-08T08:17:27Z</time>
      </trkpt>
      <trkpt lat="44.591" lon="0.82126">
        <ele>126.07</ele>
        <time>2013-12-08T08:17:38Z</time>
      </trkpt>
      <trkpt lat="44.59124" lon="0.82083">
        <ele>121.26</ele>
        <time>2013-12-08T08:17:48Z</time>
      </trkpt>
      <trkpt lat="44.59142" lon="0.82058">
        <ele>117.9</ele>
        <time>2013-12-08T08:17:56Z</time>
      </trkpt>
      <trkpt lat="44.59154" lon="0.82055">
        <ele>115.98</ele>
        <time>2013-12-08T08:18:00Z</time>
      </trkpt>
      <trkpt lat="44.59186" lon="0.8204">
        <ele>115.01</ele>
        <time>2013-12-08T08:18:10Z</time>
      </trkpt>
      <trkpt lat="44.5923" lon="0.82002">
        <ele>114.53</ele>
        <time>2013-12-08T08:18:24Z</time>
      </trkpt>
      <trkpt lat="44.59237" lon="0.81997">
        <ele>114.05</ele>
        <time>2013-12-08T08:18:26Z</time>
      </trkpt>
      <trkpt lat="44.59264" lon="0.81989">
        <ele>113.57</ele>
        <time>2013-12-08T08:18:32Z</time>
      </trkpt>
      <trkpt lat="44.59323" lon="0.81962">
        <ele>114.05</ele>
        <time>2013-12-08T08:18:48Z</time>
      </trkpt>
      <trkpt lat="44.59331" lon="0.81956">
        <ele>114.53</ele>
        <time>2013-12-08T08:18:51Z</time>
      </trkpt>
      <trkpt lat="44.59384" lon="0.81896">
        <ele>108.77</ele>
        <time>2013-12-08T08:19:02Z</time>
      </trkpt>
      <trkpt lat="44.59395" lon="0.81879">
        <ele>107.32</ele>
        <time>2013-12-08T08:19:04Z</time>
      </trkpt>
      <trkpt lat="44.59416" lon="0.81833">
        <ele>103.96</ele>
        <time>2013-12-08T08:19:11Z</time>
      </trkpt>
      <trkpt lat="44.59407" lon="0.8182">
        <ele>104.44</ele>
        <time>2013-12-08T08:19:17Z</time>
      </trkpt>
      <trkpt lat="44.59338" lon="0.81777">
        <ele>104.92</ele>
        <time>2013-12-08T08:19:37Z</time>
      </trkpt>
      <trkpt lat="44.59299" lon="0.81753">
        <ele>105.88</ele>
        <time>2013-12-08T08:19:48Z</time>
      </trkpt>
      <trkpt lat="44.59245" lon="0.81716">
        <ele>104.44</ele>
        <time>2013-12-08T08:20:03Z</time>
      </trkpt>
      <trkpt lat="44.59232" lon="0.8171">
        <ele>103.96</ele>
        <time>2013-12-08T08:20:06Z</time>
      </trkpt>
      <trkpt lat="44.59215" lon="0.81706">
        <ele>104.44</ele>
        <time>2013-12-08T08:20:10Z</time>
      </trkpt>
      <trkpt lat="44.59182" lon="0.81666">
        <ele>104.92</ele>
        <time>2013-12-08T08:20:20Z</time>
      </trkpt>
      <trkpt lat="44.59178" lon="0.81663">
        <ele>104.92</ele>
        <time>2013-12-08T08:20:21Z</time>
      </trkpt>
      <trkpt lat="44.59121" lon="0.8162">
        <ele>104.92</ele>
        <time>2013-12-08T08:20:37Z</time>
      </trkpt>
      <trkpt lat="44.59063" lon="0.81579">
        <ele>103</ele>
        <time>2013-12-08T08:20:53Z</time>
      </trkpt>
      <trkpt lat="44.58994" lon="0.81565">
        <ele>104.44</ele>
        <time>2013-12-08T08:21:11Z</time>
      </trkpt>
      <trkpt lat="44.58916" lon="0.81551">
        <ele>103.96</ele>
        <time>2013-12-08T08:21:30Z</time>
      </trkpt>
      <trkpt lat="44.58858" lon="0.81517">
        <ele>103.48</ele>
        <time>2013-12-08T08:21:46Z</time>
      </trkpt>
      <trkpt lat="44.58832" lon="0.81524">
        <ele>103.96</ele>
        <time>2013-12-08T08:21:55Z</time>
      </trkpt>
      <trkpt lat="44.58816" lon="0.8155">
        <ele>105.4</ele>
        <time>2013-12-08T08:22:03Z</time>
      </trkpt>
      <trkpt lat="44.58805" lon="0.81546">
        <ele>105.88</ele>
        <time>2013-12-08T08:22:07Z</time>
      </trkpt>
      <trkpt lat="44.58769" lon="0.81504">
        <ele>106.84</ele>
        <time>2013-12-08T08:22:21Z</time>
      </trkpt>
      <trkpt lat="44.5876" lon="0.81495">
        <ele>106.36</ele>
        <time>2013-12-08T08:22:24Z</time>
      </trkpt>
      <trkpt lat="44.58715" lon="0.81461">
        <ele>106.84</ele>
        <time>2013-12-08T08:22:38Z</time>
      </trkpt>
      <trkpt lat="44.58695" lon="0.81446">
        <ele>109.73</ele>
        <time>2013-12-08T08:22:47Z</time>
      </trkpt>
      <trkpt lat="44.58667" lon="0.8142">
        <ele>110.21</ele>
        <time>2013-12-08T08:22:59Z</time>
      </trkpt>
      <trkpt lat="44.58638" lon="0.81412">
        <ele>109.73</ele>
        <time>2013-12-08T08:23:10Z</time>
      </trkpt>
      <trkpt lat="44.58619" lon="0.81383">
        <ele>110.21</ele>
        <time>2013-12-08T08:23:19Z</time>
      </trkpt>
      <trkpt lat="44.58596" lon="0.81339">
        <ele>112.61</ele>
        <time>2013-12-08T08:23:33Z</time>
      </trkpt>
      <trkpt lat="44.58582" lon="0.81353">
        <ele>113.57</ele>
        <time>2013-12-08T08:23:41Z</time>
      </trkpt>
      <trkpt lat="44.58555" lon="0.81396">
        <ele>115.01</ele>
        <time>2013-12-08T08:23:58Z</time>
      </trkpt>
      <trkpt lat="44.58541" lon="0.81416">
        <ele>116.46</ele>
        <time>2013-12-08T08:24:10Z</time>
      </trkpt>
      <trkpt lat="44.58533" lon="0.81428">
        <ele>116.94</ele>
        <time>2013-12-08T08:24:16Z</time>
      </trkpt>
      <trkpt lat="44.58523" lon="0.81444">
        <ele>117.9</ele>
        <time>2013-12-08T08:24:24Z</time>
      </trkpt>
      <trkpt lat="44.585" lon="0.81468">
        <ele>120.78</ele>
        <time>2013-12-08T08:24:38Z</time>
      </trkpt>
      <trkpt lat="44.58467" lon="0.81493">
        <ele>126.07</ele>
        <time>2013-12-08T08:24:55Z</time>
      </trkpt>
      <trkpt lat="44.58436" lon="0.81507">
        <ele>129.92</ele>
        <time>2013-12-08T08:25:11Z</time>
      </trkpt>
      <trkpt lat="44.58408" lon="0.8152">
        <ele>129.92</ele>
        <time>2013-12-08T08:25:25Z</time>
      </trkpt>
      <trkpt lat="44.58367" lon="0.81545">
        <ele>130.88</ele>
        <time>2013-12-08T08:25:43Z</time>
      </trkpt>
      <trkpt lat="44.58337" lon="0.81579">
        <ele>132.32</ele>
        <time>2013-12-08T08:25:58Z</time>
      </trkpt>
      <trkpt lat="44.58303" lon="0.8162">
        <ele>134.72</ele>
        <time>2013-12-08T08:26:17Z</time>
      </trkpt>
      <trkpt lat="44.58292" lon="0.81633">
        <ele>136.64</ele>
        <time>2013-12-08T08:26:30Z</time>
      </trkpt>
      <trkpt lat="44.58294" lon="0.81633">
        <ele>136.64</ele>
        <time>2013-12-08T08:26:53Z</time>
      </trkpt>
      <trkpt lat="44.58299" lon="0.81623">
        <ele>134.72</ele>
        <time>2013-12-08T08:27:06Z</time>
      </trkpt>
      <trkpt lat="44.58311" lon="0.81609">
        <ele>133.28</ele>
        <time>2013-12-08T08:27:12Z</time>
      </trkpt>
      <trkpt lat="44.58305" lon="0.81589">
        <ele>133.28</ele>
        <time>2013-12-08T08:27:19Z</time>
      </trkpt>
      <trkpt lat="44.58285" lon="0.81556">
        <ele>132.8</ele>
        <time>2013-12-08T08:27:27Z</time>
      </trkpt>
      <trkpt lat="44.58268" lon="0.81539">
        <ele>132.32</ele>
        <time>2013-12-08T08:27:32Z</time>
      </trkpt>
      <trkpt lat="44.58235" lon="0.81512">
        <ele>131.84</ele>
        <time>2013-12-08T08:27:42Z</time>
      </trkpt>
      <trkpt lat="44.58164" lon="0.81528">
        <ele>132.8</ele>
        <time>2013-12-08T08:28:00Z</time>
      </trkpt>
      <trkpt lat="44.58117" lon="0.81543">
        <ele>134.72</ele>
        <time>2013-12-08T08:28:14Z</time>
      </trkpt>
      <trkpt lat="44.5806" lon="0.81561">
        <ele>135.68</ele>
        <time>2013-12-08T08:28:31Z</time>
      </trkpt>
      <trkpt lat="44.58022" lon="0.81565">
        <ele>134.24</ele>
        <time>2013-12-08T08:28:42Z</time>
      </trkpt>
      <trkpt lat="44.57976" lon="0.81578">
        <ele>132.32</ele>
        <time>2013-12-08T08:28:52Z</time>
      </trkpt>
      <trkpt lat="44.57944" lon="0.81608">
        <ele>132.32</ele>
        <time>2013-12-08T08:29:01Z</time>
      </trkpt>
      <trkpt lat="44.57937" lon="0.81614">
        <ele>131.84</ele>
        <time>2013-12-08T08:29:03Z</time>
      </trkpt>
      <trkpt lat="44.5789" lon="0.8161">
        <ele>131.36</ele>
        <time>2013-12-08T08:29:15Z</time>
      </trkpt>
      <trkpt lat="44.5783" lon="0.81553">
        <ele>123.67</ele>
        <time>2013-12-08T08:29:27Z</time>
      </trkpt>
      <trkpt lat="44.57819" lon="0.81542">
        <ele>121.74</ele>
        <time>2013-12-08T08:29:30Z</time>
      </trkpt>
      <trkpt lat="44.5779" lon="0.81516">
        <ele>116.94</ele>
        <time>2013-12-08T08:29:39Z</time>
      </trkpt>
      <trkpt lat="44.57773" lon="0.81499">
        <ele>114.05</ele>
        <time>2013-12-08T08:29:43Z</time>
      </trkpt>
      <trkpt lat="44.57749" lon="0.81471">
        <ele>110.21</ele>
        <time>2013-12-08T08:29:49Z</time>
      </trkpt>
      <trkpt lat="44.57722" lon="0.81442">
        <ele>106.36</ele>
        <time>2013-12-08T08:29:56Z</time>
      </trkpt>
      <trkpt lat="44.57701" lon="0.81422">
        <ele>104.44</ele>
        <time>2013-12-08T08:30:04Z</time>
      </trkpt>
      <trkpt lat="44.57698" lon="0.81418">
        <ele>103.96</ele>
        <time>2013-12-08T08:30:07Z</time>
      </trkpt>
      <trkpt lat="44.5769" lon="0.81409">
        <ele>103.48</ele>
        <time>2013-12-08T08:30:12Z</time>
      </trkpt>
      <trkpt lat="44.5768" lon="0.814">
        <ele>102.52</ele>
        <time>2013-12-08T08:30:24Z</time>
      </trkpt>
      <trkpt lat="44.57676" lon="0.81396">
        <ele>103</ele>
        <time>2013-12-08T08:30:51Z</time>
      </trkpt>
      <trkpt lat="44.57677" lon="0.81391">
        <ele>103</ele>
        <time>2013-12-08T08:31:06Z</time>
      </trkpt>
      <trkpt lat="44.57674" lon="0.81383">
        <ele>106.36</ele>
        <time>2013-12-08T08:31:19Z</time>
      </trkpt>
      <trkpt lat="44.57673" lon="0.81382">
        <ele>108.29</ele>
        <time>2013-12-08T08:31:42Z</time>
      </trkpt>
      <trkpt lat="44.57673" lon="0.81383">
        <ele>107.81</ele>
        <time>2013-12-08T08:32:01Z</time>
      </trkpt>
      <trkpt lat="44.57673" lon="0.81379">
        <ele>109.25</ele>
        <time>2013-12-08T08:32:17Z</time>
      </trkpt>
      <trkpt lat="44.57672" lon="0.81378">
        <ele>109.25</ele>
        <time>2013-12-08T08:32:20Z</time>
      </trkpt>
      <trkpt lat="44.57645" lon="0.81367">
        <ele>107.32</ele>
        <time>2013-12-08T08:32:33Z</time>
      </trkpt>
      <trkpt lat="44.5759" lon="0.81349">
        <ele>104.92</ele>
        <time>2013-12-08T08:32:51Z</time>
      </trkpt>
      <trkpt lat="44.5758" lon="0.81316">
        <ele>105.4</ele>
        <time>2013-12-08T08:33:02Z</time>
      </trkpt>
      <trkpt lat="44.57582" lon="0.81285">
        <ele>108.29</ele>
        <time>2013-12-08T08:33:12Z</time>
      </trkpt>
      <trkpt lat="44.57577" lon="0.81274">
        <ele>110.21</ele>
        <time>2013-12-08T08:33:18Z</time>
      </trkpt>
      <trkpt lat="44.57566" lon="0.81273">
        <ele>111.17</ele>
        <time>2013-12-08T08:33:23Z</time>
      </trkpt>
      <trkpt lat="44.57525" lon="0.81276">
        <ele>115.5</ele>
        <time>2013-12-08T08:33:41Z</time>
      </trkpt>
      <trkpt lat="44.57507" lon="0.81275">
        <ele>115.98</ele>
        <time>2013-12-08T08:33:57Z</time>
      </trkpt>
      <trkpt lat="44.57504" lon="0.81273">
        <ele>115.01</ele>
        <time>2013-12-08T08:34:23Z</time>
      </trkpt>
      <trkpt lat="44.57505" lon="0.81272">
        <ele>115.5</ele>
        <time>2013-12-08T08:34:46Z</time>
      </trkpt>
      <trkpt lat="44.5749" lon="0.81264">
        <ele>115.5</ele>
        <time>2013-12-08T08:35:09Z</time>
      </trkpt>
      <trkpt lat="44.57455" lon="0.81233">
        <ele>111.65</ele>
        <time>2013-12-08T08:35:17Z</time>
      </trkpt>
      <trkpt lat="44.57442" lon="0.81199">
        <ele>109.25</ele>
        <time>2013-12-08T08:35:24Z</time>
      </trkpt>
      <trkpt lat="44.57454" lon="0.81132">
        <ele>105.88</ele>
        <time>2013-12-08T08:35:35Z</time>
      </trkpt>
      <trkpt lat="44.57467" lon="0.81057">
        <ele>103.48</ele>
        <time>2013-12-08T08:35:48Z</time>
      </trkpt>
      <trkpt lat="44.57454" lon="0.81014">
        <ele>103</ele>
        <time>2013-12-08T08:35:59Z</time>
      </trkpt>
      <trkpt lat="44.57405" lon="0.80962">
        <ele>104.92</ele>
        <time>2013-12-08T08:36:16Z</time>
      </trkpt>
      <trkpt lat="44.57379" lon="0.80932">
        <ele>108.77</ele>
        <time>2013-12-08T08:36:27Z</time>
      </trkpt>
      <trkpt lat="44.57391" lon="0.80895">
        <ele>111.65</ele>
        <time>2013-12-08T08:36:38Z</time>
      </trkpt>
      <trkpt lat="44.57408" lon="0.80848">
        <ele>112.61</ele>
        <time>2013-12-08T08:36:53Z</time>
      </trkpt>
      <trkpt lat="44.57409" lon="0.80817">
        <ele>115.5</ele>
        <time>2013-12-08T08:37:05Z</time>
      </trkpt>
      <trkpt lat="44.5741" lon="0.8077">
        <ele>114.53</ele>
        <time>2013-12-08T08:37:20Z</time>
      </trkpt>
      <trkpt lat="44.57415" lon="0.80718">
        <ele>119.34</ele>
        <time>2013-12-08T08:37:37Z</time>
      </trkpt>
      <trkpt lat="44.57415" lon="0.8068">
        <ele>123.19</ele>
        <time>2013-12-08T08:37:50Z</time>
      </trkpt>
      <trkpt lat="44.57418" lon="0.80629">
        <ele>124.63</ele>
        <time>2013-12-08T08:38:07Z</time>
      </trkpt>
      <trkpt lat="44.57417" lon="0.8058">
        <ele>126.55</ele>
        <time>2013-12-08T08:38:23Z</time>
      </trkpt>
      <trkpt lat="44.57403" lon="0.80553">
        <ele>127.51</ele>
        <time>2013-12-08T08:38:36Z</time>
      </trkpt>
      <trkpt lat="44.57403" lon="0.80552">
        <ele>127.51</ele>
        <time>2013-12-08T08:38:37Z</time>
      </trkpt>
      <trkpt lat="44.57398" lon="0.80559">
        <ele>127.51</ele>
        <time>2013-12-08T08:38:42Z</time>
      </trkpt>
      <trkpt lat="44.57377" lon="0.80588">
        <ele>127.51</ele>
        <time>2013-12-08T08:38:57Z</time>
      </trkpt>
      <trkpt lat="44.57371" lon="0.80596">
        <ele>127.99</ele>
        <time>2013-12-08T08:39:08Z</time>
      </trkpt>
      <trkpt lat="44.57373" lon="0.80595">
        <ele>127.99</ele>
        <time>2013-12-08T08:39:20Z</time>
      </trkpt>
      <trkpt lat="44.57372" lon="0.80596">
        <ele>127.51</ele>
        <time>2013-12-08T08:39:40Z</time>
      </trkpt>
      <trkpt lat="44.5736" lon="0.80613">
        <ele>127.03</ele>
        <time>2013-12-08T08:39:58Z</time>
      </trkpt>
      <trkpt lat="44.57341" lon="0.80639">
        <ele>129.92</ele>
        <time>2013-12-08T08:40:11Z</time>
      </trkpt>
      <trkpt lat="44.57318" lon="0.80666">
        <ele>132.32</ele>
        <time>2013-12-08T08:40:25Z</time>
      </trkpt>
      <trkpt lat="44.57294" lon="0.80687">
        <ele>133.76</ele>
        <time>2013-12-08T08:40:38Z</time>
      </trkpt>
      <trkpt lat="44.57258" lon="0.80719">
        <ele>134.72</ele>
        <time>2013-12-08T08:40:54Z</time>
      </trkpt>
      <trkpt lat="44.5724" lon="0.80738">
        <ele>135.68</ele>
        <time>2013-12-08T08:41:05Z</time>
      </trkpt>
      <trkpt lat="44.57218" lon="0.80758">
        <ele>136.64</ele>
        <time>2013-12-08T08:41:18Z</time>
      </trkpt>
      <trkpt lat="44.57211" lon="0.80765">
        <ele>136.64</ele>
        <time>2013-12-08T08:41:31Z</time>
      </trkpt>
      <trkpt lat="44.57209" lon="0.80767">
        <ele>137.13</ele>
        <time>2013-12-08T08:41:46Z</time>
      </trkpt>
      <trkpt lat="44.57209" lon="0.80768">
        <ele>136.64</ele>
        <time>2013-12-08T08:42:00Z</time>
      </trkpt>
      <trkpt lat="44.57207" lon="0.80769">
        <ele>137.13</ele>
        <time>2013-12-08T08:42:14Z</time>
      </trkpt>
      <trkpt lat="44.572" lon="0.80777">
        <ele>137.13</ele>
        <time>2013-12-08T08:42:29Z</time>
      </trkpt>
      <trkpt lat="44.57198" lon="0.80778">
        <ele>137.13</ele>
        <time>2013-12-08T08:42:43Z</time>
      </trkpt>
      <trkpt lat="44.57193" lon="0.80786">
        <ele>137.13</ele>
        <time>2013-12-08T08:42:48Z</time>
      </trkpt>
      <trkpt lat="44.57164" lon="0.80812">
        <ele>137.13</ele>
        <time>2013-12-08T08:43:05Z</time>
      </trkpt>
      <trkpt lat="44.5713" lon="0.80845">
        <ele>136.16</ele>
        <time>2013-12-08T08:43:23Z</time>
      </trkpt>
      <trkpt lat="44.57124" lon="0.8085">
        <ele>135.68</ele>
        <time>2013-12-08T08:43:26Z</time>
      </trkpt>
      <trkpt lat="44.57097" lon="0.80889">
        <ele>135.2</ele>
        <time>2013-12-08T08:43:42Z</time>
      </trkpt>
      <trkpt lat="44.57079" lon="0.80911">
        <ele>134.24</ele>
        <time>2013-12-08T08:43:54Z</time>
      </trkpt>
      <trkpt lat="44.57072" lon="0.8092">
        <ele>134.24</ele>
        <time>2013-12-08T08:43:59Z</time>
      </trkpt>
      <trkpt lat="44.57058" lon="0.80944">
        <ele>134.24</ele>
        <time>2013-12-08T08:44:10Z</time>
      </trkpt>
      <trkpt lat="44.57045" lon="0.80968">
        <ele>134.24</ele>
        <time>2013-12-08T08:44:21Z</time>
      </trkpt>
      <trkpt lat="44.57027" lon="0.80988">
        <ele>135.2</ele>
        <time>2013-12-08T08:44:35Z</time>
      </trkpt>
      <trkpt lat="44.57004" lon="0.81004">
        <ele>136.16</ele>
        <time>2013-12-08T08:44:49Z</time>
      </trkpt>
      <trkpt lat="44.5698" lon="0.81017">
        <ele>136.64</ele>
        <time>2013-12-08T08:45:03Z</time>
      </trkpt>
      <trkpt lat="44.5697" lon="0.81022">
        <ele>137.61</ele>
        <time>2013-12-08T08:45:10Z</time>
      </trkpt>
      <trkpt lat="44.56947" lon="0.81034">
        <ele>140.01</ele>
        <time>2013-12-08T08:45:26Z</time>
      </trkpt>
      <trkpt lat="44.56945" lon="0.81033">
        <ele>140.01</ele>
        <time>2013-12-08T08:45:40Z</time>
      </trkpt>
      <trkpt lat="44.56947" lon="0.81028">
        <ele>140.49</ele>
        <time>2013-12-08T08:45:53Z</time>
      </trkpt>
      <trkpt lat="44.56947" lon="0.81027">
        <ele>140.49</ele>
        <time>2013-12-08T08:45:54Z</time>
      </trkpt>
      <trkpt lat="44.56943" lon="0.81029">
        <ele>140.01</ele>
        <time>2013-12-08T08:46:06Z</time>
      </trkpt>
      <trkpt lat="44.56942" lon="0.8103">
        <ele>140.01</ele>
        <time>2013-12-08T08:46:20Z</time>
      </trkpt>
      <trkpt lat="44.56942" lon="0.8103">
        <ele>140.01</ele>
        <time>2013-12-08T08:46:21Z</time>
      </trkpt>
      <trkpt lat="44.56939" lon="0.81035">
        <ele>140.01</ele>
        <time>2013-12-08T08:46:36Z</time>
      </trkpt>
      <trkpt lat="44.56925" lon="0.8106">
        <ele>140.49</ele>
        <time>2013-12-08T08:46:47Z</time>
      </trkpt>
      <trkpt lat="44.56897" lon="0.81106">
        <ele>140.97</ele>
        <time>2013-12-08T08:47:02Z</time>
      </trkpt>
      <trkpt lat="44.56869" lon="0.81151">
        <ele>140.97</ele>
        <time>2013-12-08T08:47:16Z</time>
      </trkpt>
      <trkpt lat="44.5682" lon="0.81233">
        <ele>141.45</ele>
        <time>2013-12-08T08:47:35Z</time>
      </trkpt>
      <trkpt lat="44.56775" lon="0.8131">
        <ele>142.89</ele>
        <time>2013-12-08T08:47:53Z</time>
      </trkpt>
      <trkpt lat="44.56729" lon="0.8139">
        <ele>144.34</ele>
        <time>2013-12-08T08:48:13Z</time>
      </trkpt>
      <trkpt lat="44.56681" lon="0.81469">
        <ele>145.78</ele>
        <time>2013-12-08T08:48:33Z</time>
      </trkpt>
      <trkpt lat="44.56625" lon="0.81538">
        <ele>147.22</ele>
        <time>2013-12-08T08:48:52Z</time>
      </trkpt>
      <trkpt lat="44.56576" lon="0.81613">
        <ele>145.78</ele>
        <time>2013-12-08T08:49:08Z</time>
      </trkpt>
      <trkpt lat="44.56518" lon="0.81697">
        <ele>142.41</ele>
        <time>2013-12-08T08:49:25Z</time>
      </trkpt>
      <trkpt lat="44.56434" lon="0.81778">
        <ele>141.93</ele>
        <time>2013-12-08T08:49:44Z</time>
      </trkpt>
      <trkpt lat="44.56374" lon="0.8185">
        <ele>142.41</ele>
        <time>2013-12-08T08:50:01Z</time>
      </trkpt>
      <trkpt lat="44.56319" lon="0.81919">
        <ele>142.89</ele>
        <time>2013-12-08T08:50:18Z</time>
      </trkpt>
      <trkpt lat="44.56255" lon="0.81984">
        <ele>144.34</ele>
        <time>2013-12-08T08:50:36Z</time>
      </trkpt>
      <trkpt lat="44.56246" lon="0.81992">
        <ele>144.82</ele>
        <time>2013-12-08T08:50:39Z</time>
      </trkpt>
      <trkpt lat="44.56236" lon="0.81983">
        <ele>145.3</ele>
        <time>2013-12-08T08:50:43Z</time>
      </trkpt>
      <trkpt lat="44.56204" lon="0.81904">
        <ele>146.74</ele>
        <time>2013-12-08T08:51:01Z</time>
      </trkpt>
      <trkpt lat="44.56201" lon="0.819">
        <ele>146.74</ele>
        <time>2013-12-08T08:51:02Z</time>
      </trkpt>
      <trkpt lat="44.56182" lon="0.81894">
        <ele>146.74</ele>
        <time>2013-12-08T08:51:07Z</time>
      </trkpt>
      <trkpt lat="44.56159" lon="0.81897">
        <ele>146.74</ele>
        <time>2013-12-08T08:51:13Z</time>
      </trkpt>
      <trkpt lat="44.56122" lon="0.81897">
        <ele>147.22</ele>
        <time>2013-12-08T08:51:24Z</time>
      </trkpt>
      <trkpt lat="44.56097" lon="0.81845">
        <ele>147.7</ele>
        <time>2013-12-08T08:51:36Z</time>
      </trkpt>
      <trkpt lat="44.56059" lon="0.81764">
        <ele>150.58</ele>
        <time>2013-12-08T08:51:53Z</time>
      </trkpt>
      <trkpt lat="44.56006" lon="0.81672">
        <ele>149.62</ele>
        <time>2013-12-08T08:52:13Z</time>
      </trkpt>
      <trkpt lat="44.5594" lon="0.81595">
        <ele>142.89</ele>
        <time>2013-12-08T08:52:27Z</time>
      </trkpt>
      <trkpt lat="44.55911" lon="0.81568">
        <ele>140.49</ele>
        <time>2013-12-08T08:52:34Z</time>
      </trkpt>
      <trkpt lat="44.55904" lon="0.81573">
        <ele>140.97</ele>
        <time>2013-12-08T08:52:38Z</time>
      </trkpt>
      <trkpt lat="44.55885" lon="0.81614">
        <ele>142.89</ele>
        <time>2013-12-08T08:52:52Z</time>
      </trkpt>
      <trkpt lat="44.55863" lon="0.81646">
        <ele>147.22</ele>
        <time>2013-12-08T08:53:06Z</time>
      </trkpt>
      <trkpt lat="44.55843" lon="0.81677">
        <ele>149.14</ele>
        <time>2013-12-08T08:53:22Z</time>
      </trkpt>
      <trkpt lat="44.5584" lon="0.81705">
        <ele>151.54</ele>
        <time>2013-12-08T08:53:33Z</time>
      </trkpt>
      <trkpt lat="44.55842" lon="0.81714">
        <ele>153.47</ele>
        <time>2013-12-08T08:53:38Z</time>
      </trkpt>
      <trkpt lat="44.55854" lon="0.81722">
        <ele>161.16</ele>
        <time>2013-12-08T08:53:52Z</time>
      </trkpt>
      <trkpt lat="44.55866" lon="0.81725">
        <ele>166.93</ele>
        <time>2013-12-08T08:54:01Z</time>
      </trkpt>
      <trkpt lat="44.55875" lon="0.8173">
        <ele>168.85</ele>
        <time>2013-12-08T08:54:07Z</time>
      </trkpt>
      <trkpt lat="44.55893" lon="0.81735">
        <ele>171.73</ele>
        <time>2013-12-08T08:54:19Z</time>
      </trkpt>
      <trkpt lat="44.559" lon="0.81741">
        <ele>171.73</ele>
        <time>2013-12-08T08:54:25Z</time>
      </trkpt>
      <trkpt lat="44.55916" lon="0.81764">
        <ele>174.14</ele>
        <time>2013-12-08T08:54:42Z</time>
      </trkpt>
      <trkpt lat="44.55915" lon="0.81779">
        <ele>176.06</ele>
        <time>2013-12-08T08:54:52Z</time>
      </trkpt>
      <trkpt lat="44.55906" lon="0.81802">
        <ele>178.46</ele>
        <time>2013-12-08T08:55:07Z</time>
      </trkpt>
      <trkpt lat="44.55898" lon="0.8183">
        <ele>181.35</ele>
        <time>2013-12-08T08:55:22Z</time>
      </trkpt>
      <trkpt lat="44.55896" lon="0.81832">
        <ele>182.31</ele>
        <time>2013-12-08T08:55:34Z</time>
      </trkpt>
      <trkpt lat="44.55897" lon="0.81828">
        <ele>183.27</ele>
        <time>2013-12-08T08:56:11Z</time>
      </trkpt>
      <trkpt lat="44.55896" lon="0.81831">
        <ele>182.79</ele>
        <time>2013-12-08T08:56:42Z</time>
      </trkpt>
      <trkpt lat="44.55896" lon="0.81833">
        <ele>183.27</ele>
        <time>2013-12-08T08:57:15Z</time>
      </trkpt>
      <trkpt lat="44.55896" lon="0.81834">
        <ele>184.23</ele>
        <time>2013-12-08T08:57:28Z</time>
      </trkpt>
      <trkpt lat="44.55896" lon="0.81835">
        <ele>184.71</ele>
        <time>2013-12-08T08:57:56Z</time>
      </trkpt>
      <trkpt lat="44.55896" lon="0.81835">
        <ele>185.19</ele>
        <time>2013-12-08T08:58:14Z</time>
      </trkpt>
      <trkpt lat="44.55896" lon="0.81838">
        <ele>185.19</ele>
        <time>2013-12-08T08:58:27Z</time>
      </trkpt>
      <trkpt lat="44.55897" lon="0.81861">
        <ele>185.19</ele>
        <time>2013-12-08T08:58:45Z</time>
      </trkpt>
      <trkpt lat="44.55898" lon="0.81862">
        <ele>183.27</ele>
        <time>2013-12-08T08:59:06Z</time>
      </trkpt>
      <trkpt lat="44.55902" lon="0.81864">
        <ele>182.79</ele>
        <time>2013-12-08T08:59:34Z</time>
      </trkpt>
      <trkpt lat="44.55901" lon="0.81863">
        <ele>182.79</ele>
        <time>2013-12-08T09:00:08Z</time>
      </trkpt>
      <trkpt lat="44.55902" lon="0.81863">
        <ele>181.35</ele>
        <time>2013-12-08T09:00:40Z</time>
      </trkpt>
      <trkpt lat="44.55899" lon="0.81865">
        <ele>182.79</ele>
        <time>2013-12-08T09:01:06Z</time>
      </trkpt>
      <trkpt lat="44.55898" lon="0.81864">
        <ele>182.31</ele>
        <time>2013-12-08T09:01:24Z</time>
      </trkpt>
      <trkpt lat="44.55898" lon="0.81865">
        <ele>182.79</ele>
        <time>2013-12-08T09:01:47Z</time>
      </trkpt>
      <trkpt lat="44.55897" lon="0.81864">
        <ele>180.87</ele>
        <time>2013-12-08T09:02:12Z</time>
      </trkpt>
      <trkpt lat="44.55897" lon="0.81866">
        <ele>181.35</ele>
        <time>2013-12-08T09:02:43Z</time>
      </trkpt>
      <trkpt lat="44.55898" lon="0.81867">
        <ele>182.31</ele>
        <time>2013-12-08T09:02:58Z</time>
      </trkpt>
      <trkpt lat="44.55897" lon="0.81866">
        <ele>185.67</ele>
        <time>2013-12-08T09:03:17Z</time>
      </trkpt>
      <trkpt lat="44.55895" lon="0.81871">
        <ele>185.67</ele>
        <time>2013-12-08T09:03:26Z</time>
      </trkpt>
      <trkpt lat="44.55891" lon="0.81886">
        <ele>183.75</ele>
        <time>2013-12-08T09:03:31Z</time>
      </trkpt>
      <trkpt lat="44.5589" lon="0.81905">
        <ele>179.42</ele>
        <time>2013-12-08T09:03:37Z</time>
      </trkpt>
      <trkpt lat="44.55886" lon="0.81912">
        <ele>176.06</ele>
        <time>2013-12-08T09:03:43Z</time>
      </trkpt>
      <trkpt lat="44.5589" lon="0.8192">
        <ele>175.58</ele>
        <time>2013-12-08T09:03:48Z</time>
      </trkpt>
      <trkpt lat="44.55914" lon="0.81924">
        <ele>175.1</ele>
        <time>2013-12-08T09:03:58Z</time>
      </trkpt>
      <trkpt lat="44.55944" lon="0.81919">
        <ele>172.21</ele>
        <time>2013-12-08T09:04:05Z</time>
      </trkpt>
      <trkpt lat="44.55973" lon="0.81909">
        <ele>166.93</ele>
        <time>2013-12-08T09:04:11Z</time>
      </trkpt>
      <trkpt lat="44.55982" lon="0.81903">
        <ele>164.52</ele>
        <time>2013-12-08T09:04:13Z</time>
      </trkpt>
      <trkpt lat="44.56034" lon="0.81913">
        <ele>156.35</ele>
        <time>2013-12-08T09:04:22Z</time>
      </trkpt>
      <trkpt lat="44.56039" lon="0.81914">
        <ele>155.39</ele>
        <time>2013-12-08T09:04:23Z</time>
      </trkpt>
      <trkpt lat="44.56074" lon="0.81894">
        <ele>153.47</ele>
        <time>2013-12-08T09:04:33Z</time>
      </trkpt>
      <trkpt lat="44.56097" lon="0.81872">
        <ele>151.06</ele>
        <time>2013-12-08T09:04:43Z</time>
      </trkpt>
      <trkpt lat="44.56106" lon="0.81883">
        <ele>150.58</ele>
        <time>2013-12-08T09:04:48Z</time>
      </trkpt>
      <trkpt lat="44.5612" lon="0.81925">
        <ele>148.66</ele>
        <time>2013-12-08T09:05:02Z</time>
      </trkpt>
      <trkpt lat="44.56135" lon="0.8196">
        <ele>148.18</ele>
        <time>2013-12-08T09:05:15Z</time>
      </trkpt>
      <trkpt lat="44.56144" lon="0.81997">
        <ele>148.66</ele>
        <time>2013-12-08T09:05:26Z</time>
      </trkpt>
      <trkpt lat="44.56165" lon="0.8203">
        <ele>148.66</ele>
        <time>2013-12-08T09:05:39Z</time>
      </trkpt>
      <trkpt lat="44.56167" lon="0.82037">
        <ele>148.18</ele>
        <time>2013-12-08T09:05:42Z</time>
      </trkpt>
      <trkpt lat="44.56157" lon="0.82047">
        <ele>148.66</ele>
        <time>2013-12-08T09:05:50Z</time>
      </trkpt>
      <trkpt lat="44.56136" lon="0.82047">
        <ele>148.66</ele>
        <time>2013-12-08T09:05:58Z</time>
      </trkpt>
      <trkpt lat="44.56133" lon="0.82058">
        <ele>148.18</ele>
        <time>2013-12-08T09:06:02Z</time>
      </trkpt>
      <trkpt lat="44.56148" lon="0.82121">
        <ele>145.3</ele>
        <time>2013-12-08T09:06:15Z</time>
      </trkpt>
      <trkpt lat="44.56172" lon="0.8221">
        <ele>141.45</ele>
        <time>2013-12-08T09:06:30Z</time>
      </trkpt>
      <trkpt lat="44.56198" lon="0.82288">
        <ele>137.13</ele>
        <time>2013-12-08T09:06:44Z</time>
      </trkpt>
      <trkpt lat="44.56238" lon="0.82392">
        <ele>133.76</ele>
        <time>2013-12-08T09:07:01Z</time>
      </trkpt>
      <trkpt lat="44.56248" lon="0.82417">
        <ele>132.8</ele>
        <time>2013-12-08T09:07:06Z</time>
      </trkpt>
      <trkpt lat="44.56242" lon="0.82448">
        <ele>132.32</ele>
        <time>2013-12-08T09:07:12Z</time>
      </trkpt>
      <trkpt lat="44.56208" lon="0.82516">
        <ele>130.88</ele>
        <time>2013-12-08T09:07:28Z</time>
      </trkpt>
      <trkpt lat="44.5618" lon="0.82564">
        <ele>130.4</ele>
        <time>2013-12-08T09:07:39Z</time>
      </trkpt>
      <trkpt lat="44.56163" lon="0.82585">
        <ele>129.43</ele>
        <time>2013-12-08T09:07:44Z</time>
      </trkpt>
      <trkpt lat="44.56145" lon="0.82601">
        <ele>128.47</ele>
        <time>2013-12-08T09:07:51Z</time>
      </trkpt>
      <trkpt lat="44.56131" lon="0.82619">
        <ele>127.99</ele>
        <time>2013-12-08T09:07:57Z</time>
      </trkpt>
      <trkpt lat="44.56127" lon="0.82636">
        <ele>126.07</ele>
        <time>2013-12-08T09:08:01Z</time>
      </trkpt>
      <trkpt lat="44.5612" lon="0.82662">
        <ele>123.67</ele>
        <time>2013-12-08T09:08:11Z</time>
      </trkpt>
      <trkpt lat="44.56104" lon="0.82695">
        <ele>121.26</ele>
        <time>2013-12-08T09:08:18Z</time>
      </trkpt>
      <trkpt lat="44.56072" lon="0.82728">
        <ele>119.82</ele>
        <time>2013-12-08T09:08:29Z</time>
      </trkpt>
      <trkpt lat="44.56027" lon="0.82749">
        <ele>117.42</ele>
        <time>2013-12-08T09:08:41Z</time>
      </trkpt>
      <trkpt lat="44.56021" lon="0.82755">
        <ele>117.42</ele>
        <time>2013-12-08T09:08:43Z</time>
      </trkpt>
      <trkpt lat="44.56019" lon="0.82775">
        <ele>115.98</ele>
        <time>2013-12-08T09:08:47Z</time>
      </trkpt>
      <trkpt lat="44.56015" lon="0.82828">
        <ele>117.9</ele>
        <time>2013-12-08T09:08:59Z</time>
      </trkpt>
      <trkpt lat="44.5601" lon="0.82872">
        <ele>124.15</ele>
        <time>2013-12-08T09:09:14Z</time>
      </trkpt>
      <trkpt lat="44.56003" lon="0.82908">
        <ele>129.92</ele>
        <time>2013-12-08T09:09:28Z</time>
      </trkpt>
      <trkpt lat="44.55995" lon="0.82955">
        <ele>131.36</ele>
        <time>2013-12-08T09:09:46Z</time>
      </trkpt>
      <trkpt lat="44.5598" lon="0.83023">
        <ele>132.32</ele>
        <time>2013-12-08T09:10:07Z</time>
      </trkpt>
      <trkpt lat="44.5597" lon="0.83068">
        <ele>132.32</ele>
        <time>2013-12-08T09:10:20Z</time>
      </trkpt>
      <trkpt lat="44.55957" lon="0.83111">
        <ele>132.32</ele>
        <time>2013-12-08T09:10:34Z</time>
      </trkpt>
      <trkpt lat="44.55944" lon="0.83177">
        <ele>131.84</ele>
        <time>2013-12-08T09:10:50Z</time>
      </trkpt>
      <trkpt lat="44.55935" lon="0.83243">
        <ele>132.32</ele>
        <time>2013-12-08T09:11:06Z</time>
      </trkpt>
      <trkpt lat="44.55931" lon="0.83298">
        <ele>132.32</ele>
        <time>2013-12-08T09:11:21Z</time>
      </trkpt>
      <trkpt lat="44.55931" lon="0.83331">
        <ele>131.36</ele>
        <time>2013-12-08T09:11:34Z</time>
      </trkpt>
      <trkpt lat="44.55932" lon="0.83331">
        <ele>131.84</ele>
        <time>2013-12-08T09:11:52Z</time>
      </trkpt>
      <trkpt lat="44.55935" lon="0.8333">
        <ele>131.84</ele>
        <time>2013-12-08T09:12:14Z</time>
      </trkpt>
      <trkpt lat="44.55932" lon="0.83334">
        <ele>133.28</ele>
        <time>2013-12-08T09:12:36Z</time>
      </trkpt>
      <trkpt lat="44.55932" lon="0.83333">
        <ele>135.2</ele>
        <time>2013-12-08T09:12:50Z</time>
      </trkpt>
      <trkpt lat="44.5593" lon="0.83362">
        <ele>133.28</ele>
        <time>2013-12-08T09:12:59Z</time>
      </trkpt>
      <trkpt lat="44.55917" lon="0.83435">
        <ele>127.51</ele>
        <time>2013-12-08T09:13:11Z</time>
      </trkpt>
      <trkpt lat="44.55916" lon="0.8344">
        <ele>127.51</ele>
        <time>2013-12-08T09:13:12Z</time>
      </trkpt>
      <trkpt lat="44.5588" lon="0.83458">
        <ele>127.99</ele>
        <time>2013-12-08T09:13:22Z</time>
      </trkpt>
      <trkpt lat="44.55841" lon="0.83466">
        <ele>127.51</ele>
        <time>2013-12-08T09:13:33Z</time>
      </trkpt>
      <trkpt lat="44.55832" lon="0.83465">
        <ele>127.99</ele>
        <time>2013-12-08T09:13:37Z</time>
      </trkpt>
      <trkpt lat="44.55837" lon="0.83486">
        <ele>129.43</ele>
        <time>2013-12-08T09:13:46Z</time>
      </trkpt>
      <trkpt lat="44.5587" lon="0.83495">
        <ele>127.51</ele>
        <time>2013-12-08T09:13:54Z</time>
      </trkpt>
      <trkpt lat="44.55878" lon="0.83516">
        <ele>126.55</ele>
        <time>2013-12-08T09:13:58Z</time>
      </trkpt>
      <trkpt lat="44.55879" lon="0.83528">
        <ele>125.59</ele>
        <time>2013-12-08T09:14:00Z</time>
      </trkpt>
      <trkpt lat="44.55895" lon="0.83554">
        <ele>127.51</ele>
        <time>2013-12-08T09:14:09Z</time>
      </trkpt>
      <trkpt lat="44.55903" lon="0.83567">
        <ele>129.43</ele>
        <time>2013-12-08T09:14:14Z</time>
      </trkpt>
      <trkpt lat="44.55915" lon="0.83602">
        <ele>133.76</ele>
        <time>2013-12-08T09:14:29Z</time>
      </trkpt>
      <trkpt lat="44.55925" lon="0.83621">
        <ele>136.64</ele>
        <time>2013-12-08T09:14:40Z</time>
      </trkpt>
      <trkpt lat="44.55945" lon="0.83623">
        <ele>140.49</ele>
        <time>2013-12-08T09:14:51Z</time>
      </trkpt>
      <trkpt lat="44.55948" lon="0.83623">
        <ele>141.45</ele>
        <time>2013-12-08T09:14:53Z</time>
      </trkpt>
      <trkpt lat="44.55952" lon="0.83625">
        <ele>143.37</ele>
        <time>2013-12-08T09:14:56Z</time>
      </trkpt>
      <trkpt lat="44.55969" lon="0.83657">
        <ele>145.78</ele>
        <time>2013-12-08T09:15:13Z</time>
      </trkpt>
      <trkpt lat="44.55971" lon="0.83673">
        <ele>147.22</ele>
        <time>2013-12-08T09:15:20Z</time>
      </trkpt>
      <trkpt lat="44.55959" lon="0.8371">
        <ele>145.78</ele>
        <time>2013-12-08T09:15:33Z</time>
      </trkpt>
      <trkpt lat="44.55948" lon="0.8374">
        <ele>144.82</ele>
        <time>2013-12-08T09:15:43Z</time>
      </trkpt>
      <trkpt lat="44.55951" lon="0.8377">
        <ele>143.37</ele>
        <time>2013-12-08T09:15:54Z</time>
      </trkpt>
      <trkpt lat="44.55953" lon="0.83774">
        <ele>143.37</ele>
        <time>2013-12-08T09:15:56Z</time>
      </trkpt>
      <trkpt lat="44.55949" lon="0.8378">
        <ele>144.34</ele>
        <time>2013-12-08T09:16:09Z</time>
      </trkpt>
      <trkpt lat="44.55949" lon="0.83781">
        <ele>143.37</ele>
        <time>2013-12-08T09:16:31Z</time>
      </trkpt>
      <trkpt lat="44.55949" lon="0.8378">
        <ele>142.89</ele>
        <time>2013-12-08T09:16:51Z</time>
      </trkpt>
      <trkpt lat="44.55948" lon="0.83782">
        <ele>142.89</ele>
        <time>2013-12-08T09:16:52Z</time>
      </trkpt>
      <trkpt lat="44.55921" lon="0.83821">
        <ele>140.01</ele>
        <time>2013-12-08T09:17:02Z</time>
      </trkpt>
      <trkpt lat="44.55918" lon="0.83827">
        <ele>139.53</ele>
        <time>2013-12-08T09:17:03Z</time>
      </trkpt>
      <trkpt lat="44.55902" lon="0.83866">
        <ele>135.68</ele>
        <time>2013-12-08T09:17:09Z</time>
      </trkpt>
      <trkpt lat="44.55878" lon="0.83903">
        <ele>128.47</ele>
        <time>2013-12-08T09:17:20Z</time>
      </trkpt>
      <trkpt lat="44.55865" lon="0.83933">
        <ele>125.59</ele>
        <time>2013-12-08T09:17:26Z</time>
      </trkpt>
      <trkpt lat="44.55838" lon="0.83977">
        <ele>120.78</ele>
        <time>2013-12-08T09:17:33Z</time>
      </trkpt>
      <trkpt lat="44.55824" lon="0.83993">
        <ele>117.9</ele>
        <time>2013-12-08T09:17:37Z</time>
      </trkpt>
      <trkpt lat="44.558" lon="0.84013">
        <ele>112.61</ele>
        <time>2013-12-08T09:17:44Z</time>
      </trkpt>
      <trkpt lat="44.558" lon="0.84015">
        <ele>113.09</ele>
        <time>2013-12-08T09:17:54Z</time>
      </trkpt>
      <trkpt lat="44.55799" lon="0.84024">
        <ele>116.46</ele>
        <time>2013-12-08T09:18:09Z</time>
      </trkpt>
      <trkpt lat="44.55799" lon="0.8403">
        <ele>117.9</ele>
        <time>2013-12-08T09:18:14Z</time>
      </trkpt>
      <trkpt lat="44.55797" lon="0.84036">
        <ele>118.86</ele>
        <time>2013-12-08T09:18:20Z</time>
      </trkpt>
      <trkpt lat="44.55796" lon="0.84041">
        <ele>120.3</ele>
        <time>2013-12-08T09:18:31Z</time>
      </trkpt>
      <trkpt lat="44.55796" lon="0.84041">
        <ele>121.26</ele>
        <time>2013-12-08T09:18:48Z</time>
      </trkpt>
      <trkpt lat="44.55796" lon="0.84041">
        <ele>122.22</ele>
        <time>2013-12-08T09:19:06Z</time>
      </trkpt>
      <trkpt lat="44.55794" lon="0.84041">
        <ele>121.74</ele>
        <time>2013-12-08T09:19:26Z</time>
      </trkpt>
      <trkpt lat="44.55795" lon="0.84043">
        <ele>122.22</ele>
        <time>2013-12-08T09:19:38Z</time>
      </trkpt>
      <trkpt lat="44.55795" lon="0.84042">
        <ele>122.22</ele>
        <time>2013-12-08T09:19:59Z</time>
      </trkpt>
      <trkpt lat="44.55796" lon="0.84042">
        <ele>123.19</ele>
        <time>2013-12-08T09:20:20Z</time>
      </trkpt>
      <trkpt lat="44.55796" lon="0.84043">
        <ele>123.67</ele>
        <time>2013-12-08T09:20:33Z</time>
      </trkpt>
      <trkpt lat="44.55813" lon="0.84056">
        <ele>119.82</ele>
        <time>2013-12-08T09:20:43Z</time>
      </trkpt>
      <trkpt lat="44.55819" lon="0.84054">
        <ele>119.82</ele>
        <time>2013-12-08T09:20:55Z</time>
      </trkpt>
      <trkpt lat="44.55821" lon="0.8405">
        <ele>122.22</ele>
        <time>2013-12-08T09:21:10Z</time>
      </trkpt>
      <trkpt lat="44.55822" lon="0.84053">
        <ele>126.07</ele>
        <time>2013-12-08T09:21:34Z</time>
      </trkpt>
      <trkpt lat="44.55823" lon="0.84054">
        <ele>127.03</ele>
        <time>2013-12-08T09:21:39Z</time>
      </trkpt>
      <trkpt lat="44.55826" lon="0.84058">
        <ele>128.47</ele>
        <time>2013-12-08T09:21:44Z</time>
      </trkpt>
      <trkpt lat="44.5585" lon="0.84064">
        <ele>128.95</ele>
        <time>2013-12-08T09:21:58Z</time>
      </trkpt>
      <trkpt lat="44.55879" lon="0.84082">
        <ele>129.43</ele>
        <time>2013-12-08T09:22:11Z</time>
      </trkpt>
      <trkpt lat="44.55884" lon="0.84085">
        <ele>128.95</ele>
        <time>2013-12-08T09:22:14Z</time>
      </trkpt>
      <trkpt lat="44.5589" lon="0.84077">
        <ele>127.03</ele>
        <time>2013-12-08T09:22:19Z</time>
      </trkpt>
      <trkpt lat="44.5589" lon="0.8405">
        <ele>118.86</ele>
        <time>2013-12-08T09:22:29Z</time>
      </trkpt>
      <trkpt lat="44.55876" lon="0.84042">
        <ele>117.42</ele>
        <time>2013-12-08T09:22:36Z</time>
      </trkpt>
      <trkpt lat="44.5587" lon="0.84041">
        <ele>117.42</ele>
        <time>2013-12-08T09:22:40Z</time>
      </trkpt>
      <trkpt lat="44.55872" lon="0.84031">
        <ele>116.46</ele>
        <time>2013-12-08T09:22:48Z</time>
      </trkpt>
      <trkpt lat="44.55877" lon="0.84029">
        <ele>115.01</ele>
        <time>2013-12-08T09:23:00Z</time>
      </trkpt>
      <trkpt lat="44.55895" lon="0.84033">
        <ele>116.94</ele>
        <time>2013-12-08T09:23:10Z</time>
      </trkpt>
      <trkpt lat="44.55916" lon="0.84038">
        <ele>117.42</ele>
        <time>2013-12-08T09:23:20Z</time>
      </trkpt>
      <trkpt lat="44.55928" lon="0.84043">
        <ele>118.38</ele>
        <time>2013-12-08T09:23:26Z</time>
      </trkpt>
      <trkpt lat="44.55952" lon="0.84055">
        <ele>120.78</ele>
        <time>2013-12-08T09:23:38Z</time>
      </trkpt>
      <trkpt lat="44.55975" lon="0.84066">
        <ele>122.71</ele>
        <time>2013-12-08T09:23:49Z</time>
      </trkpt>
      <trkpt lat="44.56004" lon="0.84088">
        <ele>123.67</ele>
        <time>2013-12-08T09:24:03Z</time>
      </trkpt>
      <trkpt lat="44.56032" lon="0.84108">
        <ele>123.19</ele>
        <time>2013-12-08T09:24:16Z</time>
      </trkpt>
      <trkpt lat="44.56063" lon="0.84138">
        <ele>123.67</ele>
        <time>2013-12-08T09:24:30Z</time>
      </trkpt>
      <trkpt lat="44.56098" lon="0.84146">
        <ele>124.63</ele>
        <time>2013-12-08T09:24:42Z</time>
      </trkpt>
      <trkpt lat="44.56128" lon="0.84148">
        <ele>128.47</ele>
        <time>2013-12-08T09:24:54Z</time>
      </trkpt>
      <trkpt lat="44.56136" lon="0.84144">
        <ele>130.88</ele>
        <time>2013-12-08T09:25:06Z</time>
      </trkpt>
      <trkpt lat="44.56134" lon="0.84146">
        <ele>131.84</ele>
        <time>2013-12-08T09:25:20Z</time>
      </trkpt>
      <trkpt lat="44.56132" lon="0.84147">
        <ele>132.8</ele>
        <time>2013-12-08T09:25:39Z</time>
      </trkpt>
      <trkpt lat="44.56131" lon="0.84147">
        <ele>136.16</ele>
        <time>2013-12-08T09:25:59Z</time>
      </trkpt>
      <trkpt lat="44.56133" lon="0.84146">
        <ele>136.16</ele>
        <time>2013-12-08T09:26:18Z</time>
      </trkpt>
      <trkpt lat="44.56132" lon="0.84147">
        <ele>134.72</ele>
        <time>2013-12-08T09:26:39Z</time>
      </trkpt>
      <trkpt lat="44.56131" lon="0.84148">
        <ele>135.2</ele>
        <time>2013-12-08T09:26:56Z</time>
      </trkpt>
      <trkpt lat="44.56129" lon="0.84149">
        <ele>134.72</ele>
        <time>2013-12-08T09:27:17Z</time>
      </trkpt>
      <trkpt lat="44.5613" lon="0.84144">
        <ele>135.68</ele>
        <time>2013-12-08T09:27:35Z</time>
      </trkpt>
      <trkpt lat="44.56133" lon="0.84144">
        <ele>137.61</ele>
        <time>2013-12-08T09:28:00Z</time>
      </trkpt>
      <trkpt lat="44.56133" lon="0.84144">
        <ele>137.61</ele>
        <time>2013-12-08T09:28:03Z</time>
      </trkpt>
      <trkpt lat="44.56154" lon="0.84134">
        <ele>135.68</ele>
        <time>2013-12-08T09:28:18Z</time>
      </trkpt>
      <trkpt lat="44.56183" lon="0.84115">
        <ele>137.61</ele>
        <time>2013-12-08T09:28:32Z</time>
      </trkpt>
      <trkpt lat="44.56216" lon="0.84087">
        <ele>136.64</ele>
        <time>2013-12-08T09:28:45Z</time>
      </trkpt>
      <trkpt lat="44.5625" lon="0.84068">
        <ele>137.61</ele>
        <time>2013-12-08T09:28:57Z</time>
      </trkpt>
      <trkpt lat="44.56303" lon="0.84052">
        <ele>137.61</ele>
        <time>2013-12-08T09:29:13Z</time>
      </trkpt>
      <trkpt lat="44.56356" lon="0.84055">
        <ele>137.13</ele>
        <time>2013-12-08T09:29:28Z</time>
      </trkpt>
      <trkpt lat="44.56406" lon="0.84091">
        <ele>135.68</ele>
        <time>2013-12-08T09:29:44Z</time>
      </trkpt>
      <trkpt lat="44.5645" lon="0.84117">
        <ele>137.13</ele>
        <time>2013-12-08T09:29:58Z</time>
      </trkpt>
      <trkpt lat="44.56492" lon="0.84156">
        <ele>139.05</ele>
        <time>2013-12-08T09:30:13Z</time>
      </trkpt>
      <trkpt lat="44.56529" lon="0.8416">
        <ele>140.97</ele>
        <time>2013-12-08T09:30:25Z</time>
      </trkpt>
      <trkpt lat="44.5658" lon="0.84178">
        <ele>142.41</ele>
        <time>2013-12-08T09:30:40Z</time>
      </trkpt>
      <trkpt lat="44.56637" lon="0.8419">
        <ele>140.97</ele>
        <time>2013-12-08T09:30:55Z</time>
      </trkpt>
      <trkpt lat="44.56694" lon="0.84205">
        <ele>140.97</ele>
        <time>2013-12-08T09:31:10Z</time>
      </trkpt>
      <trkpt lat="44.56738" lon="0.84255">
        <ele>140.49</ele>
        <time>2013-12-08T09:31:25Z</time>
      </trkpt>
      <trkpt lat="44.56763" lon="0.84311">
        <ele>141.93</ele>
        <time>2013-12-08T09:31:38Z</time>
      </trkpt>
      <trkpt lat="44.56781" lon="0.8436">
        <ele>142.89</ele>
        <time>2013-12-08T09:31:49Z</time>
      </trkpt>
      <trkpt lat="44.56761" lon="0.84425">
        <ele>142.41</ele>
        <time>2013-12-08T09:32:02Z</time>
      </trkpt>
      <trkpt lat="44.56746" lon="0.84496">
        <ele>145.3</ele>
        <time>2013-12-08T09:32:16Z</time>
      </trkpt>
      <trkpt lat="44.56755" lon="0.84569">
        <ele>145.78</ele>
        <time>2013-12-08T09:32:31Z</time>
      </trkpt>
      <trkpt lat="44.56782" lon="0.84606">
        <ele>146.26</ele>
        <time>2013-12-08T09:32:44Z</time>
      </trkpt>
      <trkpt lat="44.56814" lon="0.84631">
        <ele>146.74</ele>
        <time>2013-12-08T09:32:57Z</time>
      </trkpt>
      <trkpt lat="44.56853" lon="0.84659">
        <ele>148.18</ele>
        <time>2013-12-08T09:33:11Z</time>
      </trkpt>
      <trkpt lat="44.56874" lon="0.84699">
        <ele>149.62</ele>
        <time>2013-12-08T09:33:23Z</time>
      </trkpt>
      <trkpt lat="44.56897" lon="0.84737">
        <ele>149.14</ele>
        <time>2013-12-08T09:33:34Z</time>
      </trkpt>
      <trkpt lat="44.56915" lon="0.84791">
        <ele>152.99</ele>
        <time>2013-12-08T09:33:47Z</time>
      </trkpt>
      <trkpt lat="44.56925" lon="0.8484">
        <ele>151.54</ele>
        <time>2013-12-08T09:34:00Z</time>
      </trkpt>
      <trkpt lat="44.56938" lon="0.84861">
        <ele>152.51</ele>
        <time>2013-12-08T09:34:09Z</time>
      </trkpt>
      <trkpt lat="44.56942" lon="0.84861">
        <ele>153.95</ele>
        <time>2013-12-08T09:34:11Z</time>
      </trkpt>
      <trkpt lat="44.56948" lon="0.84858">
        <ele>156.83</ele>
        <time>2013-12-08T09:34:15Z</time>
      </trkpt>
      <trkpt lat="44.56958" lon="0.84857">
        <ele>160.68</ele>
        <time>2013-12-08T09:34:21Z</time>
      </trkpt>
      <trkpt lat="44.56966" lon="0.84855">
        <ele>162.6</ele>
        <time>2013-12-08T09:34:25Z</time>
      </trkpt>
      <trkpt lat="44.56972" lon="0.84861">
        <ele>164.52</ele>
        <time>2013-12-08T09:34:30Z</time>
      </trkpt>
      <trkpt lat="44.56976" lon="0.84868">
        <ele>165.96</ele>
        <time>2013-12-08T09:34:34Z</time>
      </trkpt>
      <trkpt lat="44.5699" lon="0.84882">
        <ele>169.33</ele>
        <time>2013-12-08T09:34:45Z</time>
      </trkpt>
      <trkpt lat="44.57008" lon="0.8488">
        <ele>172.69</ele>
        <time>2013-12-08T09:34:56Z</time>
      </trkpt>
      <trkpt lat="44.57019" lon="0.84885">
        <ele>174.62</ele>
        <time>2013-12-08T09:35:03Z</time>
      </trkpt>
      <trkpt lat="44.57022" lon="0.84888">
        <ele>174.62</ele>
        <time>2013-12-08T09:35:05Z</time>
      </trkpt>
      <trkpt lat="44.57032" lon="0.84893">
        <ele>176.06</ele>
        <time>2013-12-08T09:35:11Z</time>
      </trkpt>
      <trkpt lat="44.57051" lon="0.84908">
        <ele>177.98</ele>
        <time>2013-12-08T09:35:23Z</time>
      </trkpt>
      <trkpt lat="44.57063" lon="0.84912">
        <ele>179.9</ele>
        <time>2013-12-08T09:35:34Z</time>
      </trkpt>
      <trkpt lat="44.57067" lon="0.84912">
        <ele>179.42</ele>
        <time>2013-12-08T09:35:53Z</time>
      </trkpt>
      <trkpt lat="44.57066" lon="0.84916">
        <ele>182.31</ele>
        <time>2013-12-08T09:36:16Z</time>
      </trkpt>
      <trkpt lat="44.57066" lon="0.84915">
        <ele>183.27</ele>
        <time>2013-12-08T09:36:42Z</time>
      </trkpt>
      <trkpt lat="44.57066" lon="0.84914">
        <ele>184.71</ele>
        <time>2013-12-08T09:37:00Z</time>
      </trkpt>
      <trkpt lat="44.57066" lon="0.84913">
        <ele>183.75</ele>
        <time>2013-12-08T09:37:21Z</time>
      </trkpt>
      <trkpt lat="44.57064" lon="0.84911">
        <ele>184.23</ele>
        <time>2013-12-08T09:37:40Z</time>
      </trkpt>
      <trkpt lat="44.57066" lon="0.84913">
        <ele>182.79</ele>
        <time>2013-12-08T09:37:58Z</time>
      </trkpt>
      <trkpt lat="44.57085" lon="0.84912">
        <ele>183.27</ele>
        <time>2013-12-08T09:38:10Z</time>
      </trkpt>
      <trkpt lat="44.57112" lon="0.84906">
        <ele>181.83</ele>
        <time>2013-12-08T09:38:22Z</time>
      </trkpt>
      <trkpt lat="44.57142" lon="0.84906">
        <ele>182.79</ele>
        <time>2013-12-08T09:38:33Z</time>
      </trkpt>
      <trkpt lat="44.57177" lon="0.84917">
        <ele>183.75</ele>
        <time>2013-12-08T09:38:47Z</time>
      </trkpt>
      <trkpt lat="44.57208" lon="0.84916">
        <ele>184.23</ele>
        <time>2013-12-08T09:38:56Z</time>
      </trkpt>
      <trkpt lat="44.57218" lon="0.84912">
        <ele>183.75</ele>
        <time>2013-12-08T09:38:59Z</time>
      </trkpt>
      <trkpt lat="44.57218" lon="0.84925">
        <ele>183.75</ele>
        <time>2013-12-08T09:39:05Z</time>
      </trkpt>
      <trkpt lat="44.57207" lon="0.84956">
        <ele>181.83</ele>
        <time>2013-12-08T09:39:12Z</time>
      </trkpt>
      <trkpt lat="44.57197" lon="0.84981">
        <ele>181.35</ele>
        <time>2013-12-08T09:39:16Z</time>
      </trkpt>
      <trkpt lat="44.5716" lon="0.85079">
        <ele>177.02</ele>
        <time>2013-12-08T09:39:28Z</time>
      </trkpt>
      <trkpt lat="44.57157" lon="0.85087">
        <ele>176.54</ele>
        <time>2013-12-08T09:39:29Z</time>
      </trkpt>
      <trkpt lat="44.57153" lon="0.85124">
        <ele>173.17</ele>
        <time>2013-12-08T09:39:33Z</time>
      </trkpt>
      <trkpt lat="44.57157" lon="0.85173">
        <ele>170.29</ele>
        <time>2013-12-08T09:39:38Z</time>
      </trkpt>
      <trkpt lat="44.57157" lon="0.85192">
        <ele>169.33</ele>
        <time>2013-12-08T09:39:40Z</time>
      </trkpt>
      <trkpt lat="44.57154" lon="0.85221">
        <ele>167.89</ele>
        <time>2013-12-08T09:39:45Z</time>
      </trkpt>
      <trkpt lat="44.5715" lon="0.8524">
        <ele>168.85</ele>
        <time>2013-12-08T09:39:50Z</time>
      </trkpt>
      <trkpt lat="44.57129" lon="0.85266">
        <ele>173.17</ele>
        <time>2013-12-08T09:40:01Z</time>
      </trkpt>
      <trkpt lat="44.57111" lon="0.85296">
        <ele>173.66</ele>
        <time>2013-12-08T09:40:11Z</time>
      </trkpt>
      <trkpt lat="44.57108" lon="0.853">
        <ele>174.14</ele>
        <time>2013-12-08T09:40:13Z</time>
      </trkpt>
      <trkpt lat="44.57079" lon="0.85306">
        <ele>177.5</ele>
        <time>2013-12-08T09:40:25Z</time>
      </trkpt>
      <trkpt lat="44.57057" lon="0.85313">
        <ele>177.98</ele>
        <time>2013-12-08T09:40:33Z</time>
      </trkpt>
      <trkpt lat="44.57047" lon="0.85325">
        <ele>178.94</ele>
        <time>2013-12-08T09:40:38Z</time>
      </trkpt>
      <trkpt lat="44.57044" lon="0.85331">
        <ele>178.94</ele>
        <time>2013-12-08T09:40:40Z</time>
      </trkpt>
      <trkpt lat="44.57047" lon="0.85347">
        <ele>178.94</ele>
        <time>2013-12-08T09:40:45Z</time>
      </trkpt>
      <trkpt lat="44.57052" lon="0.85398">
        <ele>177.5</ele>
        <time>2013-12-08T09:41:00Z</time>
      </trkpt>
      <trkpt lat="44.57052" lon="0.85416">
        <ele>177.02</ele>
        <time>2013-12-08T09:41:05Z</time>
      </trkpt>
      <trkpt lat="44.57034" lon="0.85434">
        <ele>177.5</ele>
        <time>2013-12-08T09:41:17Z</time>
      </trkpt>
      <trkpt lat="44.57034" lon="0.85437">
        <ele>177.02</ele>
        <time>2013-12-08T09:41:31Z</time>
      </trkpt>
      <trkpt lat="44.57033" lon="0.85441">
        <ele>178.46</ele>
        <time>2013-12-08T09:42:04Z</time>
      </trkpt>
      <trkpt lat="44.57036" lon="0.8544">
        <ele>176.06</ele>
        <time>2013-12-08T09:42:39Z</time>
      </trkpt>
      <trkpt lat="44.57034" lon="0.8544">
        <ele>175.58</ele>
        <time>2013-12-08T09:43:05Z</time>
      </trkpt>
      <trkpt lat="44.57035" lon="0.85436">
        <ele>177.5</ele>
        <time>2013-12-08T09:43:19Z</time>
      </trkpt>
      <trkpt lat="44.57041" lon="0.85435">
        <ele>178.94</ele>
        <time>2013-12-08T09:43:36Z</time>
      </trkpt>
      <trkpt lat="44.5704" lon="0.85437">
        <ele>179.9</ele>
        <time>2013-12-08T09:43:43Z</time>
      </trkpt>
      <trkpt lat="44.57068" lon="0.85439">
        <ele>182.31</ele>
        <time>2013-12-08T09:43:56Z</time>
      </trkpt>
      <trkpt lat="44.57077" lon="0.8544">
        <ele>182.31</ele>
        <time>2013-12-08T09:44:01Z</time>
      </trkpt>
      <trkpt lat="44.57099" lon="0.85447">
        <ele>180.87</ele>
        <time>2013-12-08T09:44:15Z</time>
      </trkpt>
      <trkpt lat="44.57115" lon="0.85476">
        <ele>177.98</ele>
        <time>2013-12-08T09:44:22Z</time>
      </trkpt>
      <trkpt lat="44.57137" lon="0.85472">
        <ele>175.1</ele>
        <time>2013-12-08T09:44:28Z</time>
      </trkpt>
      <trkpt lat="44.57156" lon="0.85451">
        <ele>173.66</ele>
        <time>2013-12-08T09:44:33Z</time>
      </trkpt>
      <trkpt lat="44.57166" lon="0.85448">
        <ele>173.17</ele>
        <time>2013-12-08T09:44:35Z</time>
      </trkpt>
      <trkpt lat="44.572" lon="0.85449">
        <ele>173.66</ele>
        <time>2013-12-08T09:44:41Z</time>
      </trkpt>
      <trkpt lat="44.57219" lon="0.85448">
        <ele>174.14</ele>
        <time>2013-12-08T09:44:45Z</time>
      </trkpt>
      <trkpt lat="44.5726" lon="0.85445">
        <ele>178.94</ele>
        <time>2013-12-08T09:44:56Z</time>
      </trkpt>
      <trkpt lat="44.57299" lon="0.85441">
        <ele>184.71</ele>
        <time>2013-12-08T09:45:08Z</time>
      </trkpt>
      <trkpt lat="44.57337" lon="0.85452">
        <ele>182.31</ele>
        <time>2013-12-08T09:45:20Z</time>
      </trkpt>
      <trkpt lat="44.57339" lon="0.8545">
        <ele>182.79</ele>
        <time>2013-12-08T09:45:21Z</time>
      </trkpt>
      <trkpt lat="44.57348" lon="0.85433">
        <ele>183.27</ele>
        <time>2013-12-08T09:45:27Z</time>
      </trkpt>
      <trkpt lat="44.57351" lon="0.85416">
        <ele>180.87</ele>
        <time>2013-12-08T09:45:36Z</time>
      </trkpt>
      <trkpt lat="44.57347" lon="0.85406">
        <ele>178.94</ele>
        <time>2013-12-08T09:45:42Z</time>
      </trkpt>
      <trkpt lat="44.57344" lon="0.8539">
        <ele>177.5</ele>
        <time>2013-12-08T09:45:48Z</time>
      </trkpt>
      <trkpt lat="44.57368" lon="0.85358">
        <ele>177.5</ele>
        <time>2013-12-08T09:46:00Z</time>
      </trkpt>
      <trkpt lat="44.57399" lon="0.85317">
        <ele>180.87</ele>
        <time>2013-12-08T09:46:14Z</time>
      </trkpt>
      <trkpt lat="44.5741" lon="0.85306">
        <ele>179.9</ele>
        <time>2013-12-08T09:46:19Z</time>
      </trkpt>
      <trkpt lat="44.57419" lon="0.8531">
        <ele>179.42</ele>
        <time>2013-12-08T09:46:22Z</time>
      </trkpt>
      <trkpt lat="44.57458" lon="0.85339">
        <ele>177.5</ele>
        <time>2013-12-08T09:46:31Z</time>
      </trkpt>
      <trkpt lat="44.57477" lon="0.85355">
        <ele>177.02</ele>
        <time>2013-12-08T09:46:36Z</time>
      </trkpt>
      <trkpt lat="44.57484" lon="0.85363">
        <ele>177.5</ele>
        <time>2013-12-08T09:46:38Z</time>
      </trkpt>
      <trkpt lat="44.575" lon="0.85382">
        <ele>177.02</ele>
        <time>2013-12-08T09:46:42Z</time>
      </trkpt>
      <trkpt lat="44.57512" lon="0.85397">
        <ele>177.02</ele>
        <time>2013-12-08T09:46:45Z</time>
      </trkpt>
      <trkpt lat="44.5758" lon="0.85442">
        <ele>181.83</ele>
        <time>2013-12-08T09:47:02Z</time>
      </trkpt>
      <trkpt lat="44.57618" lon="0.85465">
        <ele>183.27</ele>
        <time>2013-12-08T09:47:16Z</time>
      </trkpt>
      <trkpt lat="44.5762" lon="0.85465">
        <ele>183.27</ele>
        <time>2013-12-08T09:47:17Z</time>
      </trkpt>
      <trkpt lat="44.57631" lon="0.85447">
        <ele>181.35</ele>
        <time>2013-12-08T09:47:23Z</time>
      </trkpt>
      <trkpt lat="44.57641" lon="0.8542">
        <ele>180.87</ele>
        <time>2013-12-08T09:47:29Z</time>
      </trkpt>
      <trkpt lat="44.57673" lon="0.85444">
        <ele>177.02</ele>
        <time>2013-12-08T09:47:37Z</time>
      </trkpt>
      <trkpt lat="44.57702" lon="0.85463">
        <ele>175.1</ele>
        <time>2013-12-08T09:47:42Z</time>
      </trkpt>
      <trkpt lat="44.57716" lon="0.85485">
        <ele>174.62</ele>
        <time>2013-12-08T09:47:48Z</time>
      </trkpt>
      <trkpt lat="44.57716" lon="0.85504">
        <ele>173.17</ele>
        <time>2013-12-08T09:47:52Z</time>
      </trkpt>
      <trkpt lat="44.57707" lon="0.85542">
        <ele>169.81</ele>
        <time>2013-12-08T09:47:59Z</time>
      </trkpt>
      <trkpt lat="44.57705" lon="0.85554">
        <ele>169.33</ele>
        <time>2013-12-08T09:48:01Z</time>
      </trkpt>
      <trkpt lat="44.57708" lon="0.8559">
        <ele>167.41</ele>
        <time>2013-12-08T09:48:07Z</time>
      </trkpt>
      <trkpt lat="44.57719" lon="0.85636">
        <ele>167.89</ele>
        <time>2013-12-08T09:48:16Z</time>
      </trkpt>
      <trkpt lat="44.57732" lon="0.85682">
        <ele>168.37</ele>
        <time>2013-12-08T09:48:24Z</time>
      </trkpt>
      <trkpt lat="44.57741" lon="0.85706">
        <ele>166.93</ele>
        <time>2013-12-08T09:48:28Z</time>
      </trkpt>
      <trkpt lat="44.57756" lon="0.85749">
        <ele>167.41</ele>
        <time>2013-12-08T09:48:34Z</time>
      </trkpt>
      <trkpt lat="44.57763" lon="0.8577">
        <ele>168.37</ele>
        <time>2013-12-08T09:48:37Z</time>
      </trkpt>
      <trkpt lat="44.57772" lon="0.85789">
        <ele>169.33</ele>
        <time>2013-12-08T09:48:40Z</time>
      </trkpt>
      <trkpt lat="44.57794" lon="0.85837">
        <ele>171.73</ele>
        <time>2013-12-08T09:48:48Z</time>
      </trkpt>
      <trkpt lat="44.57801" lon="0.85855">
        <ele>172.69</ele>
        <time>2013-12-08T09:48:51Z</time>
      </trkpt>
      <trkpt lat="44.57815" lon="0.85877">
        <ele>174.62</ele>
        <time>2013-12-08T09:48:55Z</time>
      </trkpt>
      <trkpt lat="44.57839" lon="0.85901">
        <ele>177.98</ele>
        <time>2013-12-08T09:49:03Z</time>
      </trkpt>
      <trkpt lat="44.57855" lon="0.85897">
        <ele>179.42</ele>
        <time>2013-12-08T09:49:10Z</time>
      </trkpt>
      <trkpt lat="44.5786" lon="0.85904">
        <ele>179.42</ele>
        <time>2013-12-08T09:49:14Z</time>
      </trkpt>
      <trkpt lat="44.57859" lon="0.85917">
        <ele>178.46</ele>
        <time>2013-12-08T09:49:20Z</time>
      </trkpt>
      <trkpt lat="44.5788" lon="0.85967">
        <ele>177.98</ele>
        <time>2013-12-08T09:49:35Z</time>
      </trkpt>
      <trkpt lat="44.5789" lon="0.85996">
        <ele>177.5</ele>
        <time>2013-12-08T09:49:41Z</time>
      </trkpt>
      <trkpt lat="44.57899" lon="0.86047">
        <ele>176.54</ele>
        <time>2013-12-08T09:49:49Z</time>
      </trkpt>
      <trkpt lat="44.57907" lon="0.86079">
        <ele>176.06</ele>
        <time>2013-12-08T09:49:54Z</time>
      </trkpt>
      <trkpt lat="44.57916" lon="0.86096">
        <ele>176.06</ele>
        <time>2013-12-08T09:49:57Z</time>
      </trkpt>
      <trkpt lat="44.57952" lon="0.86171">
        <ele>176.06</ele>
        <time>2013-12-08T09:50:09Z</time>
      </trkpt>
      <trkpt lat="44.57967" lon="0.86221">
        <ele>175.1</ele>
        <time>2013-12-08T09:50:16Z</time>
      </trkpt>
      <trkpt lat="44.57972" lon="0.86234">
        <ele>174.62</ele>
        <time>2013-12-08T09:50:18Z</time>
      </trkpt>
      <trkpt lat="44.57983" lon="0.86256">
        <ele>173.66</ele>
        <time>2013-12-08T09:50:21Z</time>
      </trkpt>
      <trkpt lat="44.58027" lon="0.86352">
        <ele>170.77</ele>
        <time>2013-12-08T09:50:33Z</time>
      </trkpt>
      <trkpt lat="44.58033" lon="0.86366">
        <ele>170.29</ele>
        <time>2013-12-08T09:50:35Z</time>
      </trkpt>
      <trkpt lat="44.58059" lon="0.86433">
        <ele>167.89</ele>
        <time>2013-12-08T09:50:47Z</time>
      </trkpt>
      <trkpt lat="44.58066" lon="0.86461">
        <ele>166.93</ele>
        <time>2013-12-08T09:50:51Z</time>
      </trkpt>
      <trkpt lat="44.58069" lon="0.8648">
        <ele>165.96</ele>
        <time>2013-12-08T09:50:54Z</time>
      </trkpt>
      <trkpt lat="44.58081" lon="0.86571">
        <ele>164.04</ele>
        <time>2013-12-08T09:51:08Z</time>
      </trkpt>
      <trkpt lat="44.58082" lon="0.86584">
        <ele>163.08</ele>
        <time>2013-12-08T09:51:10Z</time>
      </trkpt>
      <trkpt lat="44.58086" lon="0.86611">
        <ele>162.12</ele>
        <time>2013-12-08T09:51:14Z</time>
      </trkpt>
      <trkpt lat="44.58095" lon="0.86677">
        <ele>160.2</ele>
        <time>2013-12-08T09:51:25Z</time>
      </trkpt>
      <trkpt lat="44.58085" lon="0.86729">
        <ele>159.24</ele>
        <time>2013-12-08T09:51:34Z</time>
      </trkpt>
      <trkpt lat="44.58064" lon="0.86822">
        <ele>155.87</ele>
        <time>2013-12-08T09:51:47Z</time>
      </trkpt>
      <trkpt lat="44.58061" lon="0.86834">
        <ele>155.87</ele>
        <time>2013-12-08T09:51:50Z</time>
      </trkpt>
      <trkpt lat="44.5806" lon="0.86841">
        <ele>157.31</ele>
        <time>2013-12-08T09:52:03Z</time>
      </trkpt>
      <trkpt lat="44.58059" lon="0.8684">
        <ele>160.2</ele>
        <time>2013-12-08T09:52:36Z</time>
      </trkpt>
      <trkpt lat="44.58056" lon="0.86848">
        <ele>161.64</ele>
        <time>2013-12-08T09:52:53Z</time>
      </trkpt>
      <trkpt lat="44.58055" lon="0.8689">
        <ele>162.6</ele>
        <time>2013-12-08T09:53:04Z</time>
      </trkpt>
      <trkpt lat="44.58076" lon="0.86925">
        <ele>161.16</ele>
        <time>2013-12-08T09:53:12Z</time>
      </trkpt>
      <trkpt lat="44.58114" lon="0.86985">
        <ele>158.27</ele>
        <time>2013-12-08T09:53:24Z</time>
      </trkpt>
      <trkpt lat="44.58117" lon="0.8699">
        <ele>158.27</ele>
        <time>2013-12-08T09:53:25Z</time>
      </trkpt>
      <trkpt lat="44.58128" lon="0.87028">
        <ele>156.83</ele>
        <time>2013-12-08T09:53:31Z</time>
      </trkpt>
      <trkpt lat="44.58138" lon="0.87105">
        <ele>156.83</ele>
        <time>2013-12-08T09:53:43Z</time>
      </trkpt>
      <trkpt lat="44.58142" lon="0.87124">
        <ele>157.31</ele>
        <time>2013-12-08T09:53:46Z</time>
      </trkpt>
      <trkpt lat="44.58145" lon="0.87143">
        <ele>158.27</ele>
        <time>2013-12-08T09:53:49Z</time>
      </trkpt>
      <trkpt lat="44.58147" lon="0.87179">
        <ele>159.24</ele>
        <time>2013-12-08T09:53:54Z</time>
      </trkpt>
      <trkpt lat="44.58153" lon="0.87243">
        <ele>157.31</ele>
        <time>2013-12-08T09:54:06Z</time>
      </trkpt>
      <trkpt lat="44.58166" lon="0.8729">
        <ele>148.66</ele>
        <time>2013-12-08T09:54:17Z</time>
      </trkpt>
      <trkpt lat="44.58166" lon="0.87318">
        <ele>144.34</ele>
        <time>2013-12-08T09:54:24Z</time>
      </trkpt>
      <trkpt lat="44.58157" lon="0.87343">
        <ele>139.05</ele>
        <time>2013-12-08T09:54:31Z</time>
      </trkpt>
      <trkpt lat="44.58149" lon="0.87353">
        <ele>136.64</ele>
        <time>2013-12-08T09:54:36Z</time>
      </trkpt>
      <trkpt lat="44.58132" lon="0.87367">
        <ele>135.2</ele>
        <time>2013-12-08T09:54:45Z</time>
      </trkpt>
      <trkpt lat="44.58126" lon="0.87369">
        <ele>137.13</ele>
        <time>2013-12-08T09:54:57Z</time>
      </trkpt>
      <trkpt lat="44.58124" lon="0.87374">
        <ele>140.97</ele>
        <time>2013-12-08T09:55:15Z</time>
      </trkpt>
      <trkpt lat="44.58122" lon="0.87375">
        <ele>141.45</ele>
        <time>2013-12-08T09:55:28Z</time>
      </trkpt>
      <trkpt lat="44.58121" lon="0.87375">
        <ele>141.93</ele>
        <time>2013-12-08T09:55:29Z</time>
      </trkpt>
      <trkpt lat="44.58101" lon="0.8738">
        <ele>142.89</ele>
        <time>2013-12-08T09:55:40Z</time>
      </trkpt>
      <trkpt lat="44.58083" lon="0.87383">
        <ele>140.97</ele>
        <time>2013-12-08T09:55:51Z</time>
      </trkpt>
      <trkpt lat="44.58077" lon="0.87383">
        <ele>141.45</ele>
        <time>2013-12-08T09:56:03Z</time>
      </trkpt>
      <trkpt lat="44.58076" lon="0.87386">
        <ele>142.41</ele>
        <time>2013-12-08T09:56:09Z</time>
      </trkpt>
      <trkpt lat="44.58075" lon="0.8739">
        <ele>144.82</ele>
        <time>2013-12-08T09:56:20Z</time>
      </trkpt>
      <trkpt lat="44.58071" lon="0.87392">
        <ele>146.26</ele>
        <time>2013-12-08T09:56:36Z</time>
      </trkpt>
      <trkpt lat="44.58071" lon="0.87393">
        <ele>148.18</ele>
        <time>2013-12-08T09:56:58Z</time>
      </trkpt>
      <trkpt lat="44.5807" lon="0.87393">
        <ele>149.14</ele>
        <time>2013-12-08T09:57:22Z</time>
      </trkpt>
      <trkpt lat="44.58069" lon="0.87393">
        <ele>148.18</ele>
        <time>2013-12-08T09:57:25Z</time>
      </trkpt>
      <trkpt lat="44.58054" lon="0.87397">
        <ele>146.26</ele>
        <time>2013-12-08T09:57:37Z</time>
      </trkpt>
      <trkpt lat="44.58042" lon="0.87403">
        <ele>146.26</ele>
        <time>2013-12-08T09:57:47Z</time>
      </trkpt>
      <trkpt lat="44.58028" lon="0.87413">
        <ele>145.3</ele>
        <time>2013-12-08T09:57:58Z</time>
      </trkpt>
      <trkpt lat="44.58027" lon="0.87414">
        <ele>144.82</ele>
        <time>2013-12-08T09:57:59Z</time>
      </trkpt>
      <trkpt lat="44.58022" lon="0.87416">
        <ele>145.3</ele>
        <time>2013-12-08T09:58:12Z</time>
      </trkpt>
      <trkpt lat="44.58018" lon="0.87423">
        <ele>144.82</ele>
        <time>2013-12-08T09:58:24Z</time>
      </trkpt>
      <trkpt lat="44.58014" lon="0.87428">
        <ele>144.34</ele>
        <time>2013-12-08T09:58:37Z</time>
      </trkpt>
      <trkpt lat="44.58012" lon="0.87427">
        <ele>145.3</ele>
        <time>2013-12-08T09:58:58Z</time>
      </trkpt>
      <trkpt lat="44.5801" lon="0.87428">
        <ele>144.82</ele>
        <time>2013-12-08T09:59:00Z</time>
      </trkpt>
      <trkpt lat="44.58006" lon="0.87434">
        <ele>143.85</ele>
        <time>2013-12-08T09:59:04Z</time>
      </trkpt>
      <trkpt lat="44.57993" lon="0.87438">
        <ele>143.37</ele>
        <time>2013-12-08T09:59:12Z</time>
      </trkpt>
      <trkpt lat="44.5798" lon="0.87456">
        <ele>142.41</ele>
        <time>2013-12-08T09:59:21Z</time>
      </trkpt>
      <trkpt lat="44.57975" lon="0.87466">
        <ele>141.93</ele>
        <time>2013-12-08T09:59:26Z</time>
      </trkpt>
      <trkpt lat="44.57972" lon="0.87477">
        <ele>140.49</ele>
        <time>2013-12-08T09:59:30Z</time>
      </trkpt>
      <trkpt lat="44.57968" lon="0.87478">
        <ele>140.01</ele>
        <time>2013-12-08T09:59:33Z</time>
      </trkpt>
      <trkpt lat="44.57967" lon="0.87471">
        <ele>138.09</ele>
        <time>2013-12-08T09:59:37Z</time>
      </trkpt>
      <trkpt lat="44.57972" lon="0.87466">
        <ele>136.64</ele>
        <time>2013-12-08T09:59:42Z</time>
      </trkpt>
      <trkpt lat="44.57974" lon="0.87464">
        <ele>136.64</ele>
        <time>2013-12-08T09:59:44Z</time>
      </trkpt>
      <trkpt lat="44.57974" lon="0.87456">
        <ele>137.61</ele>
        <time>2013-12-08T09:59:48Z</time>
      </trkpt>
      <trkpt lat="44.57969" lon="0.8745">
        <ele>139.53</ele>
        <time>2013-12-08T09:59:53Z</time>
      </trkpt>
      <trkpt lat="44.57962" lon="0.87436">
        <ele>141.93</ele>
        <time>2013-12-08T10:00:01Z</time>
      </trkpt>
      <trkpt lat="44.5796" lon="0.87434">
        <ele>143.37</ele>
        <time>2013-12-08T10:00:13Z</time>
      </trkpt>
      <trkpt lat="44.57948" lon="0.87427">
        <ele>143.85</ele>
        <time>2013-12-08T10:00:24Z</time>
      </trkpt>
      <trkpt lat="44.57927" lon="0.8742">
        <ele>146.74</ele>
        <time>2013-12-08T10:00:37Z</time>
      </trkpt>
      <trkpt lat="44.57923" lon="0.8742">
        <ele>147.22</ele>
        <time>2013-12-08T10:00:50Z</time>
      </trkpt>
      <trkpt lat="44.57918" lon="0.87418">
        <ele>148.66</ele>
        <time>2013-12-08T10:01:02Z</time>
      </trkpt>
      <trkpt lat="44.57912" lon="0.87418">
        <ele>149.62</ele>
        <time>2013-12-08T10:01:13Z</time>
      </trkpt>
      <trkpt lat="44.57894" lon="0.87421">
        <ele>152.99</ele>
        <time>2013-12-08T10:01:26Z</time>
      </trkpt>
      <trkpt lat="44.57875" lon="0.8742">
        <ele>157.31</ele>
        <time>2013-12-08T10:01:39Z</time>
      </trkpt>
      <trkpt lat="44.5786" lon="0.87416">
        <ele>161.16</ele>
        <time>2013-12-08T10:01:51Z</time>
      </trkpt>
      <trkpt lat="44.57852" lon="0.87417">
        <ele>163.08</ele>
        <time>2013-12-08T10:02:01Z</time>
      </trkpt>
      <trkpt lat="44.57846" lon="0.87417">
        <ele>165.48</ele>
        <time>2013-12-08T10:02:13Z</time>
      </trkpt>
      <trkpt lat="44.57832" lon="0.87414">
        <ele>167.89</ele>
        <time>2013-12-08T10:02:25Z</time>
      </trkpt>
      <trkpt lat="44.57826" lon="0.87412">
        <ele>169.33</ele>
        <time>2013-12-08T10:02:38Z</time>
      </trkpt>
      <trkpt lat="44.57823" lon="0.87414">
        <ele>168.37</ele>
        <time>2013-12-08T10:02:56Z</time>
      </trkpt>
      <trkpt lat="44.57815" lon="0.87412">
        <ele>167.41</ele>
        <time>2013-12-08T10:03:12Z</time>
      </trkpt>
      <trkpt lat="44.57811" lon="0.87413">
        <ele>168.85</ele>
        <time>2013-12-08T10:03:24Z</time>
      </trkpt>
      <trkpt lat="44.57806" lon="0.87413">
        <ele>169.33</ele>
        <time>2013-12-08T10:03:39Z</time>
      </trkpt>
      <trkpt lat="44.57797" lon="0.87406">
        <ele>172.21</ele>
        <time>2013-12-08T10:03:54Z</time>
      </trkpt>
      <trkpt lat="44.57792" lon="0.87404">
        <ele>172.21</ele>
        <time>2013-12-08T10:04:07Z</time>
      </trkpt>
      <trkpt lat="44.57791" lon="0.87403">
        <ele>172.21</ele>
        <time>2013-12-08T10:04:08Z</time>
      </trkpt>
      <trkpt lat="44.5778" lon="0.87403">
        <ele>175.1</ele>
        <time>2013-12-08T10:04:15Z</time>
      </trkpt>
      <trkpt lat="44.57769" lon="0.87399">
        <ele>177.5</ele>
        <time>2013-12-08T10:04:23Z</time>
      </trkpt>
      <trkpt lat="44.57763" lon="0.87394">
        <ele>177.98</ele>
        <time>2013-12-08T10:04:35Z</time>
      </trkpt>
      <trkpt lat="44.57763" lon="0.87391">
        <ele>177.5</ele>
        <time>2013-12-08T10:04:51Z</time>
      </trkpt>
      <trkpt lat="44.57763" lon="0.87393">
        <ele>177.5</ele>
        <time>2013-12-08T10:05:11Z</time>
      </trkpt>
      <trkpt lat="44.5776" lon="0.87392">
        <ele>176.54</ele>
        <time>2013-12-08T10:05:33Z</time>
      </trkpt>
      <trkpt lat="44.57762" lon="0.87392">
        <ele>174.14</ele>
        <time>2013-12-08T10:06:02Z</time>
      </trkpt>
      <trkpt lat="44.57762" lon="0.87392">
        <ele>175.1</ele>
        <time>2013-12-08T10:06:26Z</time>
      </trkpt>
      <trkpt lat="44.57761" lon="0.87389">
        <ele>173.66</ele>
        <time>2013-12-08T10:06:50Z</time>
      </trkpt>
      <trkpt lat="44.5776" lon="0.87389">
        <ele>174.14</ele>
        <time>2013-12-08T10:06:52Z</time>
      </trkpt>
      <trkpt lat="44.57742" lon="0.87375">
        <ele>176.54</ele>
        <time>2013-12-08T10:07:08Z</time>
      </trkpt>
      <trkpt lat="44.57728" lon="0.87358">
        <ele>179.42</ele>
        <time>2013-12-08T10:07:19Z</time>
      </trkpt>
      <trkpt lat="44.5771" lon="0.87333">
        <ele>181.35</ele>
        <time>2013-12-08T10:07:33Z</time>
      </trkpt>
      <trkpt lat="44.57687" lon="0.87314">
        <ele>182.79</ele>
        <time>2013-12-08T10:07:47Z</time>
      </trkpt>
      <trkpt lat="44.57655" lon="0.87297">
        <ele>182.79</ele>
        <time>2013-12-08T10:08:00Z</time>
      </trkpt>
      <trkpt lat="44.57619" lon="0.87273">
        <ele>181.83</ele>
        <time>2013-12-08T10:08:13Z</time>
      </trkpt>
      <trkpt lat="44.57599" lon="0.87256">
        <ele>181.83</ele>
        <time>2013-12-08T10:08:21Z</time>
      </trkpt>
      <trkpt lat="44.57614" lon="0.87193">
        <ele>183.27</ele>
        <time>2013-12-08T10:08:35Z</time>
      </trkpt>
      <trkpt lat="44.57623" lon="0.87164">
        <ele>185.19</ele>
        <time>2013-12-08T10:08:43Z</time>
      </trkpt>
      <trkpt lat="44.57626" lon="0.87162">
        <ele>186.63</ele>
        <time>2013-12-08T10:08:53Z</time>
      </trkpt>
      <trkpt lat="44.57627" lon="0.87161">
        <ele>184.23</ele>
        <time>2013-12-08T10:09:08Z</time>
      </trkpt>
      <trkpt lat="44.57628" lon="0.87161">
        <ele>184.71</ele>
        <time>2013-12-08T10:09:37Z</time>
      </trkpt>
      <trkpt lat="44.57627" lon="0.8716">
        <ele>186.15</ele>
        <time>2013-12-08T10:10:21Z</time>
      </trkpt>
      <trkpt lat="44.5763" lon="0.87161">
        <ele>186.63</ele>
        <time>2013-12-08T10:11:11Z</time>
      </trkpt>
      <trkpt lat="44.57628" lon="0.87161">
        <ele>183.27</ele>
        <time>2013-12-08T10:11:49Z</time>
      </trkpt>
      <trkpt lat="44.57625" lon="0.87162">
        <ele>186.63</ele>
        <time>2013-12-08T10:12:32Z</time>
      </trkpt>
      <trkpt lat="44.57626" lon="0.87161">
        <ele>185.67</ele>
        <time>2013-12-08T10:13:17Z</time>
      </trkpt>
      <trkpt lat="44.57627" lon="0.8716">
        <ele>181.83</ele>
        <time>2013-12-08T10:13:51Z</time>
      </trkpt>
      <trkpt lat="44.57627" lon="0.87163">
        <ele>182.79</ele>
        <time>2013-12-08T10:14:24Z</time>
      </trkpt>
      <trkpt lat="44.57628" lon="0.87162">
        <ele>185.67</ele>
        <time>2013-12-08T10:15:04Z</time>
      </trkpt>
      <trkpt lat="44.57629" lon="0.87161">
        <ele>186.15</ele>
        <time>2013-12-08T10:15:39Z</time>
      </trkpt>
      <trkpt lat="44.57629" lon="0.87164">
        <ele>185.19</ele>
        <time>2013-12-08T10:16:09Z</time>
      </trkpt>
      <trkpt lat="44.57626" lon="0.87163">
        <ele>185.19</ele>
        <time>2013-12-08T10:16:39Z</time>
      </trkpt>
      <trkpt lat="44.57625" lon="0.87162">
        <ele>186.15</ele>
        <time>2013-12-08T10:16:53Z</time>
      </trkpt>
      <trkpt lat="44.57622" lon="0.87161">
        <ele>186.63</ele>
        <time>2013-12-08T10:17:15Z</time>
      </trkpt>
      <trkpt lat="44.57622" lon="0.8716">
        <ele>186.63</ele>
        <time>2013-12-08T10:17:32Z</time>
      </trkpt>
      <trkpt lat="44.57622" lon="0.87159">
        <ele>187.11</ele>
        <time>2013-12-08T10:18:02Z</time>
      </trkpt>
      <trkpt lat="44.57622" lon="0.87158">
        <ele>187.59</ele>
        <time>2013-12-08T10:18:18Z</time>
      </trkpt>
      <trkpt lat="44.57615" lon="0.87124">
        <ele>188.08</ele>
        <time>2013-12-08T10:18:31Z</time>
      </trkpt>
      <trkpt lat="44.57597" lon="0.87067">
        <ele>186.15</ele>
        <time>2013-12-08T10:18:44Z</time>
      </trkpt>
      <trkpt lat="44.5759" lon="0.87037">
        <ele>183.75</ele>
        <time>2013-12-08T10:18:49Z</time>
      </trkpt>
      <trkpt lat="44.57573" lon="0.8693">
        <ele>181.83</ele>
        <time>2013-12-08T10:19:05Z</time>
      </trkpt>
      <trkpt lat="44.57565" lon="0.86851">
        <ele>182.31</ele>
        <time>2013-12-08T10:19:19Z</time>
      </trkpt>
      <trkpt lat="44.5754" lon="0.86764">
        <ele>177.5</ele>
        <time>2013-12-08T10:19:31Z</time>
      </trkpt>
      <trkpt lat="44.57535" lon="0.86754">
        <ele>177.5</ele>
        <time>2013-12-08T10:19:40Z</time>
      </trkpt>
      <trkpt lat="44.57535" lon="0.86753">
        <ele>177.98</ele>
        <time>2013-12-08T10:19:41Z</time>
      </trkpt>
      <trkpt lat="44.57506" lon="0.86756">
        <ele>179.42</ele>
        <time>2013-12-08T10:19:51Z</time>
      </trkpt>
      <trkpt lat="44.5744" lon="0.86772">
        <ele>186.63</ele>
        <time>2013-12-08T10:20:09Z</time>
      </trkpt>
      <trkpt lat="44.5739" lon="0.86787">
        <ele>191.44</ele>
        <time>2013-12-08T10:20:22Z</time>
      </trkpt>
      <trkpt lat="44.57342" lon="0.868">
        <ele>197.21</ele>
        <time>2013-12-08T10:20:35Z</time>
      </trkpt>
      <trkpt lat="44.573" lon="0.86825">
        <ele>199.13</ele>
        <time>2013-12-08T10:20:47Z</time>
      </trkpt>
      <trkpt lat="44.57264" lon="0.86852">
        <ele>201.05</ele>
        <time>2013-12-08T10:20:58Z</time>
      </trkpt>
      <trkpt lat="44.57222" lon="0.86888">
        <ele>201.53</ele>
        <time>2013-12-08T10:21:11Z</time>
      </trkpt>
      <trkpt lat="44.57192" lon="0.86939">
        <ele>202.01</ele>
        <time>2013-12-08T10:21:24Z</time>
      </trkpt>
      <trkpt lat="44.57164" lon="0.86992">
        <ele>201.05</ele>
        <time>2013-12-08T10:21:37Z</time>
      </trkpt>
      <trkpt lat="44.57119" lon="0.87037">
        <ele>200.57</ele>
        <time>2013-12-08T10:21:51Z</time>
      </trkpt>
      <trkpt lat="44.57081" lon="0.87084">
        <ele>200.09</ele>
        <time>2013-12-08T10:22:03Z</time>
      </trkpt>
      <trkpt lat="44.57016" lon="0.87123">
        <ele>201.05</ele>
        <time>2013-12-08T10:22:19Z</time>
      </trkpt>
      <trkpt lat="44.56991" lon="0.87134">
        <ele>202.01</ele>
        <time>2013-12-08T10:22:25Z</time>
      </trkpt>
      <trkpt lat="44.56919" lon="0.87147">
        <ele>202.01</ele>
        <time>2013-12-08T10:22:42Z</time>
      </trkpt>
      <trkpt lat="44.56882" lon="0.87153">
        <ele>202.01</ele>
        <time>2013-12-08T10:22:50Z</time>
      </trkpt>
      <trkpt lat="44.56868" lon="0.87155">
        <ele>202.01</ele>
        <time>2013-12-08T10:22:53Z</time>
      </trkpt>
      <trkpt lat="44.5685" lon="0.87154">
        <ele>202.01</ele>
        <time>2013-12-08T10:22:57Z</time>
      </trkpt>
      <trkpt lat="44.56822" lon="0.87158">
        <ele>201.53</ele>
        <time>2013-12-08T10:23:03Z</time>
      </trkpt>
      <trkpt lat="44.56741" lon="0.87183">
        <ele>202.01</ele>
        <time>2013-12-08T10:23:21Z</time>
      </trkpt>
      <trkpt lat="44.56672" lon="0.87197">
        <ele>204.42</ele>
        <time>2013-12-08T10:23:38Z</time>
      </trkpt>
      <trkpt lat="44.56614" lon="0.87206">
        <ele>200.09</ele>
        <time>2013-12-08T10:23:48Z</time>
      </trkpt>
      <trkpt lat="44.56514" lon="0.8721">
        <ele>196.73</ele>
        <time>2013-12-08T10:24:04Z</time>
      </trkpt>
      <trkpt lat="44.56438" lon="0.87207">
        <ele>197.21</ele>
        <time>2013-12-08T10:24:18Z</time>
      </trkpt>
      <trkpt lat="44.564" lon="0.87214">
        <ele>198.65</ele>
        <time>2013-12-08T10:24:25Z</time>
      </trkpt>
      <trkpt lat="44.56382" lon="0.87219">
        <ele>197.69</ele>
        <time>2013-12-08T10:24:30Z</time>
      </trkpt>
      <trkpt lat="44.56377" lon="0.87209">
        <ele>196.73</ele>
        <time>2013-12-08T10:24:34Z</time>
      </trkpt>
      <trkpt lat="44.56369" lon="0.87183">
        <ele>196.73</ele>
        <time>2013-12-08T10:24:42Z</time>
      </trkpt>
      <trkpt lat="44.56364" lon="0.87174">
        <ele>195.77</ele>
        <time>2013-12-08T10:24:44Z</time>
      </trkpt>
      <trkpt lat="44.56356" lon="0.87167">
        <ele>194.8</ele>
        <time>2013-12-08T10:24:46Z</time>
      </trkpt>
      <trkpt lat="44.56339" lon="0.87157">
        <ele>192.4</ele>
        <time>2013-12-08T10:24:50Z</time>
      </trkpt>
      <trkpt lat="44.56324" lon="0.87158">
        <ele>191.44</ele>
        <time>2013-12-08T10:24:53Z</time>
      </trkpt>
      <trkpt lat="44.56313" lon="0.87159">
        <ele>190.48</ele>
        <time>2013-12-08T10:24:55Z</time>
      </trkpt>
      <trkpt lat="44.563" lon="0.87153">
        <ele>188.08</ele>
        <time>2013-12-08T10:25:00Z</time>
      </trkpt>
      <trkpt lat="44.56298" lon="0.8714">
        <ele>186.63</ele>
        <time>2013-12-08T10:25:02Z</time>
      </trkpt>
      <trkpt lat="44.56295" lon="0.87102">
        <ele>184.23</ele>
        <time>2013-12-08T10:25:07Z</time>
      </trkpt>
      <trkpt lat="44.56295" lon="0.87085">
        <ele>183.75</ele>
        <time>2013-12-08T10:25:09Z</time>
      </trkpt>
      <trkpt lat="44.56294" lon="0.87054">
        <ele>182.31</ele>
        <time>2013-12-08T10:25:13Z</time>
      </trkpt>
      <trkpt lat="44.56284" lon="0.87028">
        <ele>181.83</ele>
        <time>2013-12-08T10:25:19Z</time>
      </trkpt>
      <trkpt lat="44.56282" lon="0.86969">
        <ele>181.35</ele>
        <time>2013-12-08T10:25:29Z</time>
      </trkpt>
      <trkpt lat="44.56277" lon="0.8691">
        <ele>179.42</ele>
        <time>2013-12-08T10:25:39Z</time>
      </trkpt>
      <trkpt lat="44.56278" lon="0.86877">
        <ele>177.02</ele>
        <time>2013-12-08T10:25:45Z</time>
      </trkpt>
      <trkpt lat="44.56286" lon="0.86868">
        <ele>175.58</ele>
        <time>2013-12-08T10:25:49Z</time>
      </trkpt>
      <trkpt lat="44.56307" lon="0.86863">
        <ele>174.62</ele>
        <time>2013-12-08T10:25:55Z</time>
      </trkpt>
      <trkpt lat="44.5631" lon="0.8686">
        <ele>174.62</ele>
        <time>2013-12-08T10:25:57Z</time>
      </trkpt>
      <trkpt lat="44.56313" lon="0.86848">
        <ele>174.62</ele>
        <time>2013-12-08T10:26:02Z</time>
      </trkpt>
      <trkpt lat="44.56316" lon="0.86831">
        <ele>174.14</ele>
        <time>2013-12-08T10:26:07Z</time>
      </trkpt>
      <trkpt lat="44.56322" lon="0.86821">
        <ele>173.66</ele>
        <time>2013-12-08T10:26:09Z</time>
      </trkpt>
      <trkpt lat="44.56336" lon="0.86811">
        <ele>171.25</ele>
        <time>2013-12-08T10:26:15Z</time>
      </trkpt>
      <trkpt lat="44.56338" lon="0.86794">
        <ele>168.85</ele>
        <time>2013-12-08T10:26:18Z</time>
      </trkpt>
      <trkpt lat="44.5633" lon="0.86752">
        <ele>163.56</ele>
        <time>2013-12-08T10:26:25Z</time>
      </trkpt>
      <trkpt lat="44.56325" lon="0.86724">
        <ele>161.16</ele>
        <time>2013-12-08T10:26:29Z</time>
      </trkpt>
      <trkpt lat="44.56317" lon="0.86699">
        <ele>160.68</ele>
        <time>2013-12-08T10:26:33Z</time>
      </trkpt>
      <trkpt lat="44.56309" lon="0.86665">
        <ele>159.72</ele>
        <time>2013-12-08T10:26:38Z</time>
      </trkpt>
      <trkpt lat="44.56303" lon="0.86624">
        <ele>158.75</ele>
        <time>2013-12-08T10:26:44Z</time>
      </trkpt>
      <trkpt lat="44.56314" lon="0.86597">
        <ele>156.83</ele>
        <time>2013-12-08T10:26:48Z</time>
      </trkpt>
      <trkpt lat="44.56322" lon="0.86585">
        <ele>155.39</ele>
        <time>2013-12-08T10:26:50Z</time>
      </trkpt>
      <trkpt lat="44.56338" lon="0.86556">
        <ele>153.95</ele>
        <time>2013-12-08T10:26:54Z</time>
      </trkpt>
      <trkpt lat="44.56363" lon="0.86515">
        <ele>151.54</ele>
        <time>2013-12-08T10:27:00Z</time>
      </trkpt>
      <trkpt lat="44.56381" lon="0.86466">
        <ele>151.54</ele>
        <time>2013-12-08T10:27:06Z</time>
      </trkpt>
      <trkpt lat="44.56385" lon="0.8641">
        <ele>150.1</ele>
        <time>2013-12-08T10:27:13Z</time>
      </trkpt>
      <trkpt lat="44.56378" lon="0.86388">
        <ele>147.7</ele>
        <time>2013-12-08T10:27:18Z</time>
      </trkpt>
      <trkpt lat="44.56355" lon="0.86301">
        <ele>142.41</ele>
        <time>2013-12-08T10:27:30Z</time>
      </trkpt>
      <trkpt lat="44.56354" lon="0.86287">
        <ele>141.45</ele>
        <time>2013-12-08T10:27:32Z</time>
      </trkpt>
      <trkpt lat="44.56347" lon="0.86236">
        <ele>135.2</ele>
        <time>2013-12-08T10:27:39Z</time>
      </trkpt>
      <trkpt lat="44.56339" lon="0.86221">
        <ele>134.72</ele>
        <time>2013-12-08T10:27:41Z</time>
      </trkpt>
      <trkpt lat="44.56285" lon="0.86161">
        <ele>129.92</ele>
        <time>2013-12-08T10:27:52Z</time>
      </trkpt>
      <trkpt lat="44.56274" lon="0.86148">
        <ele>135.2</ele>
        <time>2013-12-08T10:28:00Z</time>
      </trkpt>
      <trkpt lat="44.56272" lon="0.86143">
        <ele>140.01</ele>
        <time>2013-12-08T10:28:19Z</time>
      </trkpt>
      <trkpt lat="44.56273" lon="0.8614">
        <ele>143.37</ele>
        <time>2013-12-08T10:28:38Z</time>
      </trkpt>
      <trkpt lat="44.56273" lon="0.8614">
        <ele>146.26</ele>
        <time>2013-12-08T10:29:03Z</time>
      </trkpt>
      <trkpt lat="44.56274" lon="0.8614">
        <ele>148.18</ele>
        <time>2013-12-08T10:29:33Z</time>
      </trkpt>
      <trkpt lat="44.56275" lon="0.86141">
        <ele>148.66</ele>
        <time>2013-12-08T10:29:58Z</time>
      </trkpt>
      <trkpt lat="44.5628" lon="0.86139">
        <ele>149.62</ele>
        <time>2013-12-08T10:30:02Z</time>
      </trkpt>
      <trkpt lat="44.56316" lon="0.86136">
        <ele>150.1</ele>
        <time>2013-12-08T10:30:16Z</time>
      </trkpt>
      <trkpt lat="44.56381" lon="0.86128">
        <ele>151.54</ele>
        <time>2013-12-08T10:30:34Z</time>
      </trkpt>
      <trkpt lat="44.5644" lon="0.86119">
        <ele>155.87</ele>
        <time>2013-12-08T10:30:50Z</time>
      </trkpt>
      <trkpt lat="44.56505" lon="0.86111">
        <ele>158.75</ele>
        <time>2013-12-08T10:31:06Z</time>
      </trkpt>
      <trkpt lat="44.56555" lon="0.86098">
        <ele>160.2</ele>
        <time>2013-12-08T10:31:19Z</time>
      </trkpt>
      <trkpt lat="44.56576" lon="0.86078">
        <ele>159.24</ele>
        <time>2013-12-08T10:31:25Z</time>
      </trkpt>
      <trkpt lat="44.56603" lon="0.86012">
        <ele>158.27</ele>
        <time>2013-12-08T10:31:38Z</time>
      </trkpt>
      <trkpt lat="44.56616" lon="0.85931">
        <ele>157.31</ele>
        <time>2013-12-08T10:31:53Z</time>
      </trkpt>
      <trkpt lat="44.5662" lon="0.85832">
        <ele>163.08</ele>
        <time>2013-12-08T10:32:10Z</time>
      </trkpt>
      <trkpt lat="44.56619" lon="0.8576">
        <ele>164.52</ele>
        <time>2013-12-08T10:32:23Z</time>
      </trkpt>
      <trkpt lat="44.56627" lon="0.85677">
        <ele>167.89</ele>
        <time>2013-12-08T10:32:37Z</time>
      </trkpt>
      <trkpt lat="44.56646" lon="0.85579">
        <ele>171.25</ele>
        <time>2013-12-08T10:32:54Z</time>
      </trkpt>
      <trkpt lat="44.56659" lon="0.8552">
        <ele>174.14</ele>
        <time>2013-12-08T10:33:09Z</time>
      </trkpt>
      <trkpt lat="44.56659" lon="0.85519">
        <ele>175.1</ele>
        <time>2013-12-08T10:33:21Z</time>
      </trkpt>
      <trkpt lat="44.56658" lon="0.85519">
        <ele>176.06</ele>
        <time>2013-12-08T10:33:43Z</time>
      </trkpt>
      <trkpt lat="44.56659" lon="0.85518">
        <ele>176.54</ele>
        <time>2013-12-08T10:33:52Z</time>
      </trkpt>
      <trkpt lat="44.56672" lon="0.85502">
        <ele>174.62</ele>
        <time>2013-12-08T10:34:00Z</time>
      </trkpt>
      <trkpt lat="44.56718" lon="0.85467">
        <ele>175.58</ele>
        <time>2013-12-08T10:34:15Z</time>
      </trkpt>
      <trkpt lat="44.56757" lon="0.85446">
        <ele>176.54</ele>
        <time>2013-12-08T10:34:25Z</time>
      </trkpt>
      <trkpt lat="44.56815" lon="0.85431">
        <ele>178.94</ele>
        <time>2013-12-08T10:34:38Z</time>
      </trkpt>
      <trkpt lat="44.56865" lon="0.85435">
        <ele>180.87</ele>
        <time>2013-12-08T10:34:51Z</time>
      </trkpt>
      <trkpt lat="44.56904" lon="0.85429">
        <ele>180.87</ele>
        <time>2013-12-08T10:35:01Z</time>
      </trkpt>
      <trkpt lat="44.56953" lon="0.85433">
        <ele>181.35</ele>
        <time>2013-12-08T10:35:13Z</time>
      </trkpt>
      <trkpt lat="44.56987" lon="0.85439">
        <ele>181.83</ele>
        <time>2013-12-08T10:35:23Z</time>
      </trkpt>
      <trkpt lat="44.56998" lon="0.85445">
        <ele>184.23</ele>
        <time>2013-12-08T10:35:30Z</time>
      </trkpt>
      <trkpt lat="44.57008" lon="0.85444">
        <ele>184.71</ele>
        <time>2013-12-08T10:35:41Z</time>
      </trkpt>
      <trkpt lat="44.57015" lon="0.85437">
        <ele>182.31</ele>
        <time>2013-12-08T10:35:53Z</time>
      </trkpt>
      <trkpt lat="44.57019" lon="0.85434">
        <ele>183.27</ele>
        <time>2013-12-08T10:35:59Z</time>
      </trkpt>
      <trkpt lat="44.57025" lon="0.85433">
        <ele>185.19</ele>
        <time>2013-12-08T10:36:11Z</time>
      </trkpt>
      <trkpt lat="44.57039" lon="0.85436">
        <ele>185.67</ele>
        <time>2013-12-08T10:36:20Z</time>
      </trkpt>
      <trkpt lat="44.57077" lon="0.85441">
        <ele>183.27</ele>
        <time>2013-12-08T10:36:33Z</time>
      </trkpt>
      <trkpt lat="44.57104" lon="0.85448">
        <ele>182.31</ele>
        <time>2013-12-08T10:36:40Z</time>
      </trkpt>
      <trkpt lat="44.57112" lon="0.85465">
        <ele>179.9</ele>
        <time>2013-12-08T10:36:44Z</time>
      </trkpt>
      <trkpt lat="44.57142" lon="0.85471">
        <ele>175.1</ele>
        <time>2013-12-08T10:36:52Z</time>
      </trkpt>
      <trkpt lat="44.57176" lon="0.85446">
        <ele>171.25</ele>
        <time>2013-12-08T10:36:59Z</time>
      </trkpt>
      <trkpt lat="44.572" lon="0.85447">
        <ele>170.77</ele>
        <time>2013-12-08T10:37:03Z</time>
      </trkpt>
      <trkpt lat="44.57247" lon="0.85444">
        <ele>175.1</ele>
        <time>2013-12-08T10:37:14Z</time>
      </trkpt>
      <trkpt lat="44.57274" lon="0.8544">
        <ele>178.94</ele>
        <time>2013-12-08T10:37:25Z</time>
      </trkpt>
      <trkpt lat="44.57311" lon="0.85442">
        <ele>178.94</ele>
        <time>2013-12-08T10:37:36Z</time>
      </trkpt>
      <trkpt lat="44.5734" lon="0.85448">
        <ele>180.38</ele>
        <time>2013-12-08T10:37:44Z</time>
      </trkpt>
      <trkpt lat="44.57356" lon="0.85439">
        <ele>181.35</ele>
        <time>2013-12-08T10:37:51Z</time>
      </trkpt>
      <trkpt lat="44.57379" lon="0.85442">
        <ele>182.79</ele>
        <time>2013-12-08T10:38:00Z</time>
      </trkpt>
      <trkpt lat="44.57389" lon="0.85456">
        <ele>183.27</ele>
        <time>2013-12-08T10:38:06Z</time>
      </trkpt>
      <trkpt lat="44.57405" lon="0.85485">
        <ele>182.31</ele>
        <time>2013-12-08T10:38:17Z</time>
      </trkpt>
      <trkpt lat="44.57407" lon="0.85536">
        <ele>182.79</ele>
        <time>2013-12-08T10:38:30Z</time>
      </trkpt>
      <trkpt lat="44.57408" lon="0.85579">
        <ele>183.75</ele>
        <time>2013-12-08T10:38:43Z</time>
      </trkpt>
      <trkpt lat="44.57409" lon="0.85641">
        <ele>183.75</ele>
        <time>2013-12-08T10:38:56Z</time>
      </trkpt>
      <trkpt lat="44.57412" lon="0.85711">
        <ele>186.15</ele>
        <time>2013-12-08T10:39:09Z</time>
      </trkpt>
      <trkpt lat="44.57411" lon="0.85767">
        <ele>183.75</ele>
        <time>2013-12-08T10:39:20Z</time>
      </trkpt>
      <trkpt lat="44.57402" lon="0.8582">
        <ele>184.71</ele>
        <time>2013-12-08T10:39:30Z</time>
      </trkpt>
      <trkpt lat="44.57394" lon="0.85872">
        <ele>186.63</ele>
        <time>2013-12-08T10:39:42Z</time>
      </trkpt>
      <trkpt lat="44.5738" lon="0.85901">
        <ele>188.08</ele>
        <time>2013-12-08T10:39:56Z</time>
      </trkpt>
      <trkpt lat="44.57375" lon="0.85926">
        <ele>191.44</ele>
        <time>2013-12-08T10:40:08Z</time>
      </trkpt>
      <trkpt lat="44.57374" lon="0.85929">
        <ele>191.44</ele>
        <time>2013-12-08T10:40:10Z</time>
      </trkpt>
      <trkpt lat="44.57366" lon="0.8596">
        <ele>192.88</ele>
        <time>2013-12-08T10:40:25Z</time>
      </trkpt>
      <trkpt lat="44.5737" lon="0.85997">
        <ele>193.84</ele>
        <time>2013-12-08T10:40:38Z</time>
      </trkpt>
      <trkpt lat="44.57382" lon="0.86028">
        <ele>194.32</ele>
        <time>2013-12-08T10:40:48Z</time>
      </trkpt>
      <trkpt lat="44.57424" lon="0.86058">
        <ele>191.44</ele>
        <time>2013-12-08T10:40:59Z</time>
      </trkpt>
      <trkpt lat="44.57462" lon="0.8607">
        <ele>190.96</ele>
        <time>2013-12-08T10:41:07Z</time>
      </trkpt>
      <trkpt lat="44.57535" lon="0.86063">
        <ele>187.11</ele>
        <time>2013-12-08T10:41:20Z</time>
      </trkpt>
      <trkpt lat="44.57631" lon="0.86021">
        <ele>181.83</ele>
        <time>2013-12-08T10:41:37Z</time>
      </trkpt>
      <trkpt lat="44.57647" lon="0.8601">
        <ele>181.83</ele>
        <time>2013-12-08T10:41:40Z</time>
      </trkpt>
      <trkpt lat="44.5772" lon="0.85978">
        <ele>180.87</ele>
        <time>2013-12-08T10:41:53Z</time>
      </trkpt>
      <trkpt lat="44.57794" lon="0.85943">
        <ele>180.38</ele>
        <time>2013-12-08T10:42:06Z</time>
      </trkpt>
      <trkpt lat="44.57886" lon="0.85898">
        <ele>177.98</ele>
        <time>2013-12-08T10:42:20Z</time>
      </trkpt>
      <trkpt lat="44.57924" lon="0.8588">
        <ele>177.98</ele>
        <time>2013-12-08T10:42:26Z</time>
      </trkpt>
      <trkpt lat="44.5802" lon="0.85833">
        <ele>179.42</ele>
        <time>2013-12-08T10:42:43Z</time>
      </trkpt>
      <trkpt lat="44.58093" lon="0.85799">
        <ele>181.35</ele>
        <time>2013-12-08T10:42:57Z</time>
      </trkpt>
      <trkpt lat="44.58159" lon="0.85758">
        <ele>180.38</ele>
        <time>2013-12-08T10:43:10Z</time>
      </trkpt>
      <trkpt lat="44.5818" lon="0.85731">
        <ele>180.38</ele>
        <time>2013-12-08T10:43:15Z</time>
      </trkpt>
      <trkpt lat="44.58206" lon="0.85674">
        <ele>180.87</ele>
        <time>2013-12-08T10:43:24Z</time>
      </trkpt>
      <trkpt lat="44.58234" lon="0.85624">
        <ele>181.83</ele>
        <time>2013-12-08T10:43:34Z</time>
      </trkpt>
      <trkpt lat="44.58253" lon="0.85603">
        <ele>179.9</ele>
        <time>2013-12-08T10:43:39Z</time>
      </trkpt>
      <trkpt lat="44.58346" lon="0.85572">
        <ele>178.94</ele>
        <time>2013-12-08T10:43:57Z</time>
      </trkpt>
      <trkpt lat="44.5844" lon="0.85536">
        <ele>180.38</ele>
        <time>2013-12-08T10:44:16Z</time>
      </trkpt>
      <trkpt lat="44.58449" lon="0.85529">
        <ele>180.87</ele>
        <time>2013-12-08T10:44:18Z</time>
      </trkpt>
      <trkpt lat="44.585" lon="0.85484">
        <ele>183.75</ele>
        <time>2013-12-08T10:44:29Z</time>
      </trkpt>
      <trkpt lat="44.58516" lon="0.85475">
        <ele>183.27</ele>
        <time>2013-12-08T10:44:32Z</time>
      </trkpt>
      <trkpt lat="44.58598" lon="0.85478">
        <ele>179.42</ele>
        <time>2013-12-08T10:44:46Z</time>
      </trkpt>
      <trkpt lat="44.58673" lon="0.85499">
        <ele>178.94</ele>
        <time>2013-12-08T10:44:59Z</time>
      </trkpt>
      <trkpt lat="44.58753" lon="0.8552">
        <ele>177.02</ele>
        <time>2013-12-08T10:45:13Z</time>
      </trkpt>
      <trkpt lat="44.58791" lon="0.85525">
        <ele>176.54</ele>
        <time>2013-12-08T10:45:22Z</time>
      </trkpt>
      <trkpt lat="44.58799" lon="0.85512">
        <ele>176.06</ele>
        <time>2013-12-08T10:45:26Z</time>
      </trkpt>
      <trkpt lat="44.58824" lon="0.85464">
        <ele>178.46</ele>
        <time>2013-12-08T10:45:37Z</time>
      </trkpt>
      <trkpt lat="44.5883" lon="0.85419">
        <ele>180.38</ele>
        <time>2013-12-08T10:45:46Z</time>
      </trkpt>
      <trkpt lat="44.58832" lon="0.85407">
        <ele>178.94</ele>
        <time>2013-12-08T10:45:55Z</time>
      </trkpt>
      <trkpt lat="44.58831" lon="0.85397">
        <ele>178.94</ele>
        <time>2013-12-08T10:46:14Z</time>
      </trkpt>
      <trkpt lat="44.5882" lon="0.85378">
        <ele>178.94</ele>
        <time>2013-12-08T10:46:19Z</time>
      </trkpt>
      <trkpt lat="44.58803" lon="0.85298">
        <ele>177.98</ele>
        <time>2013-12-08T10:46:33Z</time>
      </trkpt>
      <trkpt lat="44.58787" lon="0.852">
        <ele>176.06</ele>
        <time>2013-12-08T10:46:47Z</time>
      </trkpt>
      <trkpt lat="44.58758" lon="0.85079">
        <ele>172.21</ele>
        <time>2013-12-08T10:47:01Z</time>
      </trkpt>
      <trkpt lat="44.58743" lon="0.85022">
        <ele>170.77</ele>
        <time>2013-12-08T10:47:08Z</time>
      </trkpt>
      <trkpt lat="44.58754" lon="0.85019">
        <ele>169.33</ele>
        <time>2013-12-08T10:47:16Z</time>
      </trkpt>
      <trkpt lat="44.58757" lon="0.85028">
        <ele>169.33</ele>
        <time>2013-12-08T10:47:18Z</time>
      </trkpt>
      <trkpt lat="44.5879" lon="0.85076">
        <ele>174.14</ele>
        <time>2013-12-08T10:47:32Z</time>
      </trkpt>
      <trkpt lat="44.5882" lon="0.8509">
        <ele>178.46</ele>
        <time>2013-12-08T10:47:42Z</time>
      </trkpt>
      <trkpt lat="44.58845" lon="0.85136">
        <ele>177.98</ele>
        <time>2013-12-08T10:47:53Z</time>
      </trkpt>
      <trkpt lat="44.58869" lon="0.85168">
        <ele>178.46</ele>
        <time>2013-12-08T10:48:04Z</time>
      </trkpt>
      <trkpt lat="44.58873" lon="0.85167">
        <ele>178.46</ele>
        <time>2013-12-08T10:48:05Z</time>
      </trkpt>
      <trkpt lat="44.58886" lon="0.85167">
        <ele>177.5</ele>
        <time>2013-12-08T10:48:08Z</time>
      </trkpt>
      <trkpt lat="44.5892" lon="0.85205">
        <ele>174.62</ele>
        <time>2013-12-08T10:48:16Z</time>
      </trkpt>
      <trkpt lat="44.58943" lon="0.85208">
        <ele>172.21</ele>
        <time>2013-12-08T10:48:20Z</time>
      </trkpt>
      <trkpt lat="44.5898" lon="0.85199">
        <ele>170.77</ele>
        <time>2013-12-08T10:48:26Z</time>
      </trkpt>
      <trkpt lat="44.58989" lon="0.85199">
        <ele>169.81</ele>
        <time>2013-12-08T10:48:28Z</time>
      </trkpt>
      <trkpt lat="44.59039" lon="0.85175">
        <ele>167.89</ele>
        <time>2013-12-08T10:48:38Z</time>
      </trkpt>
      <trkpt lat="44.5912" lon="0.85153">
        <ele>165.96</ele>
        <time>2013-12-08T10:48:54Z</time>
      </trkpt>
      <trkpt lat="44.59131" lon="0.85149">
        <ele>165.48</ele>
        <time>2013-12-08T10:48:56Z</time>
      </trkpt>
      <trkpt lat="44.59211" lon="0.8509">
        <ele>163.08</ele>
        <time>2013-12-08T10:49:12Z</time>
      </trkpt>
      <trkpt lat="44.59232" lon="0.85073">
        <ele>162.12</ele>
        <time>2013-12-08T10:49:16Z</time>
      </trkpt>
      <trkpt lat="44.59268" lon="0.85057">
        <ele>161.16</ele>
        <time>2013-12-08T10:49:22Z</time>
      </trkpt>
      <trkpt lat="44.59313" lon="0.85016">
        <ele>162.6</ele>
        <time>2013-12-08T10:49:32Z</time>
      </trkpt>
      <trkpt lat="44.59323" lon="0.8499">
        <ele>163.08</ele>
        <time>2013-12-08T10:49:36Z</time>
      </trkpt>
      <trkpt lat="44.59326" lon="0.84977">
        <ele>163.56</ele>
        <time>2013-12-08T10:49:38Z</time>
      </trkpt>
      <trkpt lat="44.59346" lon="0.84947">
        <ele>164.52</ele>
        <time>2013-12-08T10:49:44Z</time>
      </trkpt>
      <trkpt lat="44.59373" lon="0.8492">
        <ele>164.04</ele>
        <time>2013-12-08T10:49:50Z</time>
      </trkpt>
      <trkpt lat="44.59382" lon="0.84911">
        <ele>163.56</ele>
        <time>2013-12-08T10:49:52Z</time>
      </trkpt>
      <trkpt lat="44.594" lon="0.84874">
        <ele>162.6</ele>
        <time>2013-12-08T10:49:58Z</time>
      </trkpt>
      <trkpt lat="44.59405" lon="0.84823">
        <ele>162.6</ele>
        <time>2013-12-08T10:50:07Z</time>
      </trkpt>
      <trkpt lat="44.59414" lon="0.84809">
        <ele>163.08</ele>
        <time>2013-12-08T10:50:10Z</time>
      </trkpt>
      <trkpt lat="44.59443" lon="0.84769">
        <ele>161.64</ele>
        <time>2013-12-08T10:50:20Z</time>
      </trkpt>
      <trkpt lat="44.59443" lon="0.84754">
        <ele>161.16</ele>
        <time>2013-12-08T10:50:23Z</time>
      </trkpt>
      <trkpt lat="44.59423" lon="0.84674">
        <ele>156.83</ele>
        <time>2013-12-08T10:50:34Z</time>
      </trkpt>
      <trkpt lat="44.59411" lon="0.84633">
        <ele>155.39</ele>
        <time>2013-12-08T10:50:39Z</time>
      </trkpt>
      <trkpt lat="44.59395" lon="0.84574">
        <ele>154.91</ele>
        <time>2013-12-08T10:50:48Z</time>
      </trkpt>
      <trkpt lat="44.59409" lon="0.84541">
        <ele>152.99</ele>
        <time>2013-12-08T10:50:54Z</time>
      </trkpt>
      <trkpt lat="44.59431" lon="0.84519">
        <ele>152.99</ele>
        <time>2013-12-08T10:50:59Z</time>
      </trkpt>
      <trkpt lat="44.59447" lon="0.845">
        <ele>153.95</ele>
        <time>2013-12-08T10:51:03Z</time>
      </trkpt>
      <trkpt lat="44.5952" lon="0.84419">
        <ele>153.47</ele>
        <time>2013-12-08T10:51:18Z</time>
      </trkpt>
      <trkpt lat="44.59567" lon="0.84371">
        <ele>153.95</ele>
        <time>2013-12-08T10:51:31Z</time>
      </trkpt>
      <trkpt lat="44.5957" lon="0.84367">
        <ele>153.95</ele>
        <time>2013-12-08T10:51:32Z</time>
      </trkpt>
      <trkpt lat="44.59607" lon="0.84339">
        <ele>155.39</ele>
        <time>2013-12-08T10:51:41Z</time>
      </trkpt>
      <trkpt lat="44.59622" lon="0.84324">
        <ele>157.31</ele>
        <time>2013-12-08T10:51:45Z</time>
      </trkpt>
      <trkpt lat="44.59632" lon="0.84312">
        <ele>157.31</ele>
        <time>2013-12-08T10:51:48Z</time>
      </trkpt>
      <trkpt lat="44.59651" lon="0.84278">
        <ele>154.43</ele>
        <time>2013-12-08T10:51:54Z</time>
      </trkpt>
      <trkpt lat="44.5967" lon="0.84254">
        <ele>152.03</ele>
        <time>2013-12-08T10:51:58Z</time>
      </trkpt>
      <trkpt lat="44.597" lon="0.84211">
        <ele>148.66</ele>
        <time>2013-12-08T10:52:05Z</time>
      </trkpt>
      <trkpt lat="44.59711" lon="0.84201">
        <ele>147.7</ele>
        <time>2013-12-08T10:52:07Z</time>
      </trkpt>
      <trkpt lat="44.59744" lon="0.84151">
        <ele>144.82</ele>
        <time>2013-12-08T10:52:14Z</time>
      </trkpt>
      <trkpt lat="44.59756" lon="0.84128">
        <ele>143.37</ele>
        <time>2013-12-08T10:52:17Z</time>
      </trkpt>
      <trkpt lat="44.59806" lon="0.8406">
        <ele>141.45</ele>
        <time>2013-12-08T10:52:29Z</time>
      </trkpt>
      <trkpt lat="44.59846" lon="0.84007">
        <ele>143.37</ele>
        <time>2013-12-08T10:52:45Z</time>
      </trkpt>
      <trkpt lat="44.59858" lon="0.84013">
        <ele>144.82</ele>
        <time>2013-12-08T10:52:54Z</time>
      </trkpt>
      <trkpt lat="44.59857" lon="0.84011">
        <ele>143.37</ele>
        <time>2013-12-08T10:53:17Z</time>
      </trkpt>
      <trkpt lat="44.59857" lon="0.84012">
        <ele>142.89</ele>
        <time>2013-12-08T10:53:34Z</time>
      </trkpt>
      <trkpt lat="44.59857" lon="0.84012">
        <ele>142.89</ele>
        <time>2013-12-08T10:53:56Z</time>
      </trkpt>
      <trkpt lat="44.59861" lon="0.84018">
        <ele>142.89</ele>
        <time>2013-12-08T10:54:13Z</time>
      </trkpt>
      <trkpt lat="44.59882" lon="0.84058">
        <ele>143.85</ele>
        <time>2013-12-08T10:54:26Z</time>
      </trkpt>
      <trkpt lat="44.59911" lon="0.84124">
        <ele>142.41</ele>
        <time>2013-12-08T10:54:40Z</time>
      </trkpt>
      <trkpt lat="44.5995" lon="0.84215">
        <ele>137.61</ele>
        <time>2013-12-08T10:54:52Z</time>
      </trkpt>
      <trkpt lat="44.59953" lon="0.84223">
        <ele>136.64</ele>
        <time>2013-12-08T10:54:53Z</time>
      </trkpt>
      <trkpt lat="44.59988" lon="0.84253">
        <ele>132.32</ele>
        <time>2013-12-08T10:55:00Z</time>
      </trkpt>
      <trkpt lat="44.60039" lon="0.84258">
        <ele>128.47</ele>
        <time>2013-12-08T10:55:07Z</time>
      </trkpt>
      <trkpt lat="44.60079" lon="0.84293">
        <ele>125.59</ele>
        <time>2013-12-08T10:55:14Z</time>
      </trkpt>
      <trkpt lat="44.60082" lon="0.84295">
        <ele>126.07</ele>
        <time>2013-12-08T10:55:15Z</time>
      </trkpt>
      <trkpt lat="44.60094" lon="0.84289">
        <ele>125.59</ele>
        <time>2013-12-08T10:55:19Z</time>
      </trkpt>
      <trkpt lat="44.60105" lon="0.84276">
        <ele>125.11</ele>
        <time>2013-12-08T10:55:22Z</time>
      </trkpt>
      <trkpt lat="44.60111" lon="0.84265">
        <ele>125.11</ele>
        <time>2013-12-08T10:55:24Z</time>
      </trkpt>
      <trkpt lat="44.60129" lon="0.84215">
        <ele>123.19</ele>
        <time>2013-12-08T10:55:31Z</time>
      </trkpt>
      <trkpt lat="44.60139" lon="0.84164">
        <ele>121.74</ele>
        <time>2013-12-08T10:55:38Z</time>
      </trkpt>
      <trkpt lat="44.6015" lon="0.84144">
        <ele>121.74</ele>
        <time>2013-12-08T10:55:43Z</time>
      </trkpt>
      <trkpt lat="44.60172" lon="0.84111">
        <ele>127.03</ele>
        <time>2013-12-08T10:55:54Z</time>
      </trkpt>
      <trkpt lat="44.60173" lon="0.84103">
        <ele>127.99</ele>
        <time>2013-12-08T10:55:56Z</time>
      </trkpt>
      <trkpt lat="44.60187" lon="0.841">
        <ele>129.92</ele>
        <time>2013-12-08T10:56:02Z</time>
      </trkpt>
      <trkpt lat="44.60211" lon="0.84074">
        <ele>132.8</ele>
        <time>2013-12-08T10:56:15Z</time>
      </trkpt>
      <trkpt lat="44.60217" lon="0.84074">
        <ele>134.24</ele>
        <time>2013-12-08T10:56:18Z</time>
      </trkpt>
      <trkpt lat="44.60246" lon="0.84095">
        <ele>138.57</ele>
        <time>2013-12-08T10:56:34Z</time>
      </trkpt>
      <trkpt lat="44.6025" lon="0.84097">
        <ele>139.05</ele>
        <time>2013-12-08T10:56:36Z</time>
      </trkpt>
      <trkpt lat="44.60285" lon="0.84104">
        <ele>143.85</ele>
        <time>2013-12-08T10:56:52Z</time>
      </trkpt>
      <trkpt lat="44.60311" lon="0.84096">
        <ele>145.78</ele>
        <time>2013-12-08T10:57:08Z</time>
      </trkpt>
      <trkpt lat="44.60341" lon="0.84084">
        <ele>144.82</ele>
        <time>2013-12-08T10:57:22Z</time>
      </trkpt>
      <trkpt lat="44.6038" lon="0.84081">
        <ele>145.78</ele>
        <time>2013-12-08T10:57:37Z</time>
      </trkpt>
      <trkpt lat="44.60426" lon="0.84073">
        <ele>146.74</ele>
        <time>2013-12-08T10:57:52Z</time>
      </trkpt>
      <trkpt lat="44.60471" lon="0.8405">
        <ele>148.66</ele>
        <time>2013-12-08T10:58:07Z</time>
      </trkpt>
      <trkpt lat="44.60488" lon="0.84038">
        <ele>149.14</ele>
        <time>2013-12-08T10:58:20Z</time>
      </trkpt>
      <trkpt lat="44.60488" lon="0.84038">
        <ele>149.14</ele>
        <time>2013-12-08T10:58:43Z</time>
      </trkpt>
      <trkpt lat="44.60489" lon="0.84035">
        <ele>146.74</ele>
        <time>2013-12-08T10:59:12Z</time>
      </trkpt>
      <trkpt lat="44.60506" lon="0.84001">
        <ele>147.7</ele>
        <time>2013-12-08T10:59:22Z</time>
      </trkpt>
      <trkpt lat="44.6051" lon="0.83993">
        <ele>147.7</ele>
        <time>2013-12-08T10:59:25Z</time>
      </trkpt>
      <trkpt lat="44.60537" lon="0.83988">
        <ele>149.14</ele>
        <time>2013-12-08T10:59:35Z</time>
      </trkpt>
      <trkpt lat="44.60582" lon="0.83997">
        <ele>152.51</ele>
        <time>2013-12-08T10:59:49Z</time>
      </trkpt>
      <trkpt lat="44.60591" lon="0.83995">
        <ele>153.47</ele>
        <time>2013-12-08T10:59:52Z</time>
      </trkpt>
      <trkpt lat="44.60599" lon="0.8397">
        <ele>153.47</ele>
        <time>2013-12-08T10:59:59Z</time>
      </trkpt>
      <trkpt lat="44.60602" lon="0.83922">
        <ele>153.47</ele>
        <time>2013-12-08T11:00:12Z</time>
      </trkpt>
      <trkpt lat="44.60604" lon="0.83888">
        <ele>155.39</ele>
        <time>2013-12-08T11:00:21Z</time>
      </trkpt>
      <trkpt lat="44.60622" lon="0.83875">
        <ele>155.87</ele>
        <time>2013-12-08T11:00:32Z</time>
      </trkpt>
      <trkpt lat="44.60625" lon="0.83875">
        <ele>156.35</ele>
        <time>2013-12-08T11:00:33Z</time>
      </trkpt>
      <trkpt lat="44.60666" lon="0.83865">
        <ele>156.83</ele>
        <time>2013-12-08T11:00:46Z</time>
      </trkpt>
      <trkpt lat="44.60696" lon="0.8386">
        <ele>155.87</ele>
        <time>2013-12-08T11:00:53Z</time>
      </trkpt>
      <trkpt lat="44.60745" lon="0.83863">
        <ele>158.27</ele>
        <time>2013-12-08T11:01:05Z</time>
      </trkpt>
      <trkpt lat="44.60791" lon="0.83856">
        <ele>157.31</ele>
        <time>2013-12-08T11:01:16Z</time>
      </trkpt>
      <trkpt lat="44.6081" lon="0.83849">
        <ele>154.91</ele>
        <time>2013-12-08T11:01:21Z</time>
      </trkpt>
      <trkpt lat="44.60836" lon="0.83845">
        <ele>154.43</ele>
        <time>2013-12-08T11:01:27Z</time>
      </trkpt>
      <trkpt lat="44.60881" lon="0.83854">
        <ele>158.75</ele>
        <time>2013-12-08T11:01:41Z</time>
      </trkpt>
      <trkpt lat="44.60894" lon="0.83855">
        <ele>158.75</ele>
        <time>2013-12-08T11:01:46Z</time>
      </trkpt>
      <trkpt lat="44.60903" lon="0.83831">
        <ele>160.2</ele>
        <time>2013-12-08T11:01:56Z</time>
      </trkpt>
      <trkpt lat="44.60904" lon="0.83831">
        <ele>158.75</ele>
        <time>2013-12-08T11:02:19Z</time>
      </trkpt>
      <trkpt lat="44.60904" lon="0.83828">
        <ele>161.16</ele>
        <time>2013-12-08T11:02:44Z</time>
      </trkpt>
      <trkpt lat="44.60904" lon="0.8383">
        <ele>160.2</ele>
        <time>2013-12-08T11:03:18Z</time>
      </trkpt>
      <trkpt lat="44.60909" lon="0.83806">
        <ele>158.75</ele>
        <time>2013-12-08T11:03:31Z</time>
      </trkpt>
      <trkpt lat="44.60919" lon="0.83757">
        <ele>156.35</ele>
        <time>2013-12-08T11:03:41Z</time>
      </trkpt>
      <trkpt lat="44.60927" lon="0.83725">
        <ele>154.43</ele>
        <time>2013-12-08T11:03:46Z</time>
      </trkpt>
      <trkpt lat="44.60941" lon="0.83694">
        <ele>152.51</ele>
        <time>2013-12-08T11:03:51Z</time>
      </trkpt>
      <trkpt lat="44.60944" lon="0.8368">
        <ele>151.54</ele>
        <time>2013-12-08T11:03:53Z</time>
      </trkpt>
      <trkpt lat="44.60943" lon="0.83643">
        <ele>148.18</ele>
        <time>2013-12-08T11:04:00Z</time>
      </trkpt>
      <trkpt lat="44.60877" lon="0.83579">
        <ele>137.61</ele>
        <time>2013-12-08T11:04:12Z</time>
      </trkpt>
      <trkpt lat="44.60811" lon="0.83521">
        <ele>136.64</ele>
        <time>2013-12-08T11:04:24Z</time>
      </trkpt>
      <trkpt lat="44.60807" lon="0.83517">
        <ele>136.64</ele>
        <time>2013-12-08T11:04:25Z</time>
      </trkpt>
      <trkpt lat="44.60753" lon="0.83479">
        <ele>134.72</ele>
        <time>2013-12-08T11:04:37Z</time>
      </trkpt>
      <trkpt lat="44.60717" lon="0.83454">
        <ele>133.76</ele>
        <time>2013-12-08T11:04:44Z</time>
      </trkpt>
      <trkpt lat="44.60661" lon="0.83386">
        <ele>134.72</ele>
        <time>2013-12-08T11:04:59Z</time>
      </trkpt>
      <trkpt lat="44.606" lon="0.83311">
        <ele>139.53</ele>
        <time>2013-12-08T11:05:15Z</time>
      </trkpt>
      <trkpt lat="44.60544" lon="0.83242">
        <ele>142.41</ele>
        <time>2013-12-08T11:05:32Z</time>
      </trkpt>
      <trkpt lat="44.60513" lon="0.83215">
        <ele>140.97</ele>
        <time>2013-12-08T11:05:44Z</time>
      </trkpt>
      <trkpt lat="44.60491" lon="0.83208">
        <ele>140.49</ele>
        <time>2013-12-08T11:05:49Z</time>
      </trkpt>
      <trkpt lat="44.60473" lon="0.8321">
        <ele>140.49</ele>
        <time>2013-12-08T11:05:53Z</time>
      </trkpt>
      <trkpt lat="44.60415" lon="0.83207">
        <ele>140.97</ele>
        <time>2013-12-08T11:06:09Z</time>
      </trkpt>
      <trkpt lat="44.60398" lon="0.8319">
        <ele>140.97</ele>
        <time>2013-12-08T11:06:19Z</time>
      </trkpt>
      <trkpt lat="44.60361" lon="0.83157">
        <ele>140.97</ele>
        <time>2013-12-08T11:06:35Z</time>
      </trkpt>
      <trkpt lat="44.60308" lon="0.83105">
        <ele>140.01</ele>
        <time>2013-12-08T11:06:54Z</time>
      </trkpt>
      <trkpt lat="44.60259" lon="0.83027">
        <ele>136.16</ele>
        <time>2013-12-08T11:07:08Z</time>
      </trkpt>
      <trkpt lat="44.60198" lon="0.82922">
        <ele>133.76</ele>
        <time>2013-12-08T11:07:25Z</time>
      </trkpt>
      <trkpt lat="44.60179" lon="0.82892">
        <ele>133.28</ele>
        <time>2013-12-08T11:07:31Z</time>
      </trkpt>
      <trkpt lat="44.60136" lon="0.82869">
        <ele>129.92</ele>
        <time>2013-12-08T11:07:39Z</time>
      </trkpt>
      <trkpt lat="44.60124" lon="0.8287">
        <ele>128.47</ele>
        <time>2013-12-08T11:07:41Z</time>
      </trkpt>
      <trkpt lat="44.60102" lon="0.82881">
        <ele>127.03</ele>
        <time>2013-12-08T11:07:45Z</time>
      </trkpt>
      <trkpt lat="44.60086" lon="0.82897">
        <ele>126.07</ele>
        <time>2013-12-08T11:07:48Z</time>
      </trkpt>
      <trkpt lat="44.60048" lon="0.82913">
        <ele>123.67</ele>
        <time>2013-12-08T11:07:56Z</time>
      </trkpt>
      <trkpt lat="44.60041" lon="0.82891">
        <ele>121.74</ele>
        <time>2013-12-08T11:07:59Z</time>
      </trkpt>
      <trkpt lat="44.60037" lon="0.82873">
        <ele>120.78</ele>
        <time>2013-12-08T11:08:01Z</time>
      </trkpt>
      <trkpt lat="44.60016" lon="0.82833">
        <ele>119.34</ele>
        <time>2013-12-08T11:08:06Z</time>
      </trkpt>
      <trkpt lat="44.59951" lon="0.82763">
        <ele>117.9</ele>
        <time>2013-12-08T11:08:20Z</time>
      </trkpt>
      <trkpt lat="44.59935" lon="0.82758">
        <ele>116.94</ele>
        <time>2013-12-08T11:08:25Z</time>
      </trkpt>
      <trkpt lat="44.59923" lon="0.82755">
        <ele>115.98</ele>
        <time>2013-12-08T11:08:28Z</time>
      </trkpt>
      <trkpt lat="44.5991" lon="0.82743">
        <ele>115.01</ele>
        <time>2013-12-08T11:08:32Z</time>
      </trkpt>
      <trkpt lat="44.59884" lon="0.82708">
        <ele>113.57</ele>
        <time>2013-12-08T11:08:41Z</time>
      </trkpt>
      <trkpt lat="44.59863" lon="0.82691">
        <ele>111.17</ele>
        <time>2013-12-08T11:08:47Z</time>
      </trkpt>
      <trkpt lat="44.5986" lon="0.8268">
        <ele>109.73</ele>
        <time>2013-12-08T11:08:50Z</time>
      </trkpt>
      <trkpt lat="44.59847" lon="0.82669">
        <ele>107.32</ele>
        <time>2013-12-08T11:08:54Z</time>
      </trkpt>
      <trkpt lat="44.59809" lon="0.82631">
        <ele>103</ele>
        <time>2013-12-08T11:09:05Z</time>
      </trkpt>
      <trkpt lat="44.59806" lon="0.82627">
        <ele>103.48</ele>
        <time>2013-12-08T11:09:18Z</time>
      </trkpt>
      <trkpt lat="44.59805" lon="0.82628">
        <ele>104.44</ele>
        <time>2013-12-08T11:09:40Z</time>
      </trkpt>
      <trkpt lat="44.598" lon="0.82625">
        <ele>107.32</ele>
        <time>2013-12-08T11:09:52Z</time>
      </trkpt>
      <trkpt lat="44.59799" lon="0.82624">
        <ele>107.81</ele>
        <time>2013-12-08T11:09:53Z</time>
      </trkpt>
      <trkpt lat="44.59794" lon="0.82622">
        <ele>108.29</ele>
        <time>2013-12-08T11:10:07Z</time>
      </trkpt>
      <trkpt lat="44.5978" lon="0.82604">
        <ele>109.73</ele>
        <time>2013-12-08T11:10:20Z</time>
      </trkpt>
      <trkpt lat="44.59774" lon="0.82595">
        <ele>110.69</ele>
        <time>2013-12-08T11:10:25Z</time>
      </trkpt>
      <trkpt lat="44.5976" lon="0.82575">
        <ele>115.5</ele>
        <time>2013-12-08T11:10:37Z</time>
      </trkpt>
      <trkpt lat="44.59743" lon="0.82542">
        <ele>120.78</ele>
        <time>2013-12-08T11:10:50Z</time>
      </trkpt>
      <trkpt lat="44.59712" lon="0.82489">
        <ele>119.34</ele>
        <time>2013-12-08T11:11:03Z</time>
      </trkpt>
      <trkpt lat="44.59686" lon="0.82462">
        <ele>118.86</ele>
        <time>2013-12-08T11:11:12Z</time>
      </trkpt>
      <trkpt lat="44.59672" lon="0.82443">
        <ele>117.42</ele>
        <time>2013-12-08T11:11:17Z</time>
      </trkpt>
      <trkpt lat="44.59655" lon="0.8241">
        <ele>118.86</ele>
        <time>2013-12-08T11:11:27Z</time>
      </trkpt>
      <trkpt lat="44.59631" lon="0.82385">
        <ele>121.26</ele>
        <time>2013-12-08T11:11:38Z</time>
      </trkpt>
      <trkpt lat="44.59601" lon="0.82352">
        <ele>125.59</ele>
        <time>2013-12-08T11:11:53Z</time>
      </trkpt>
      <trkpt lat="44.5958" lon="0.82326">
        <ele>128.47</ele>
        <time>2013-12-08T11:12:06Z</time>
      </trkpt>
      <trkpt lat="44.59562" lon="0.82308">
        <ele>130.4</ele>
        <time>2013-12-08T11:12:19Z</time>
      </trkpt>
      <trkpt lat="44.5956" lon="0.82308">
        <ele>130.88</ele>
        <time>2013-12-08T11:12:21Z</time>
      </trkpt>
      <trkpt lat="44.59557" lon="0.82307">
        <ele>127.99</ele>
        <time>2013-12-08T11:12:37Z</time>
      </trkpt>
      <trkpt lat="44.59557" lon="0.82309">
        <ele>127.99</ele>
        <time>2013-12-08T11:12:58Z</time>
      </trkpt>
      <trkpt lat="44.59556" lon="0.82309">
        <ele>129.43</ele>
        <time>2013-12-08T11:13:13Z</time>
      </trkpt>
      <trkpt lat="44.59557" lon="0.82309">
        <ele>130.4</ele>
        <time>2013-12-08T11:13:39Z</time>
      </trkpt>
      <trkpt lat="44.59556" lon="0.82308">
        <ele>130.4</ele>
        <time>2013-12-08T11:14:00Z</time>
      </trkpt>
      <trkpt lat="44.59557" lon="0.82308">
        <ele>128.47</ele>
        <time>2013-12-08T11:14:27Z</time>
      </trkpt>
      <trkpt lat="44.59557" lon="0.82308">
        <ele>127.51</ele>
        <time>2013-12-08T11:14:35Z</time>
      </trkpt>
      <trkpt lat="44.59533" lon="0.8228">
        <ele>126.07</ele>
        <time>2013-12-08T11:14:46Z</time>
      </trkpt>
      <trkpt lat="44.5953" lon="0.82278">
        <ele>125.59</ele>
        <time>2013-12-08T11:14:47Z</time>
      </trkpt>
      <trkpt lat="44.59497" lon="0.82256">
        <ele>121.74</ele>
        <time>2013-12-08T11:14:57Z</time>
      </trkpt>
      <trkpt lat="44.59473" lon="0.82243">
        <ele>118.86</ele>
        <time>2013-12-08T11:15:08Z</time>
      </trkpt>
      <trkpt lat="44.59451" lon="0.8223">
        <ele>116.94</ele>
        <time>2013-12-08T11:15:17Z</time>
      </trkpt>
      <trkpt lat="44.59415" lon="0.82204">
        <ele>110.21</ele>
        <time>2013-12-08T11:15:30Z</time>
      </trkpt>
      <trkpt lat="44.59409" lon="0.82198">
        <ele>109.25</ele>
        <time>2013-12-08T11:15:33Z</time>
      </trkpt>
      <trkpt lat="44.59386" lon="0.82179">
        <ele>105.88</ele>
        <time>2013-12-08T11:15:45Z</time>
      </trkpt>
      <trkpt lat="44.59381" lon="0.82176">
        <ele>105.88</ele>
        <time>2013-12-08T11:15:47Z</time>
      </trkpt>
      <trkpt lat="44.59343" lon="0.82156">
        <ele>106.36</ele>
        <time>2013-12-08T11:16:02Z</time>
      </trkpt>
      <trkpt lat="44.59316" lon="0.8214">
        <ele>108.77</ele>
        <time>2013-12-08T11:16:14Z</time>
      </trkpt>
      <trkpt lat="44.59272" lon="0.82123">
        <ele>113.09</ele>
        <time>2013-12-08T11:16:31Z</time>
      </trkpt>
      <trkpt lat="44.59226" lon="0.82121">
        <ele>116.94</ele>
        <time>2013-12-08T11:16:48Z</time>
      </trkpt>
      <trkpt lat="44.59194" lon="0.8213">
        <ele>116.46</ele>
        <time>2013-12-08T11:17:03Z</time>
      </trkpt>
      <trkpt lat="44.59171" lon="0.8218">
        <ele>116.94</ele>
        <time>2013-12-08T11:17:17Z</time>
      </trkpt>
      <trkpt lat="44.59148" lon="0.82227">
        <ele>118.38</ele>
        <time>2013-12-08T11:17:31Z</time>
      </trkpt>
      <trkpt lat="44.59117" lon="0.82275">
        <ele>119.82</ele>
        <time>2013-12-08T11:17:46Z</time>
      </trkpt>
      <trkpt lat="44.59076" lon="0.82349">
        <ele>117.9</ele>
        <time>2013-12-08T11:18:02Z</time>
      </trkpt>
      <trkpt lat="44.59049" lon="0.82416">
        <ele>121.26</ele>
        <time>2013-12-08T11:18:17Z</time>
      </trkpt>
      <trkpt lat="44.59057" lon="0.82454">
        <ele>122.71</ele>
        <time>2013-12-08T11:18:25Z</time>
      </trkpt>
      <trkpt lat="44.59041" lon="0.8247">
        <ele>122.22</ele>
        <time>2013-12-08T11:18:32Z</time>
      </trkpt>
      <trkpt lat="44.59038" lon="0.82468">
        <ele>122.71</ele>
        <time>2013-12-08T11:18:33Z</time>
      </trkpt>
      <trkpt lat="44.58983" lon="0.82451">
        <ele>125.11</ele>
        <time>2013-12-08T11:18:51Z</time>
      </trkpt>
      <trkpt lat="44.58914" lon="0.82419">
        <ele>127.51</ele>
        <time>2013-12-08T11:19:12Z</time>
      </trkpt>
      <trkpt lat="44.5885" lon="0.82388">
        <ele>130.4</ele>
        <time>2013-12-08T11:19:32Z</time>
      </trkpt>
      <trkpt lat="44.58819" lon="0.82381">
        <ele>137.61</ele>
        <time>2013-12-08T11:19:46Z</time>
      </trkpt>
      <trkpt lat="44.58781" lon="0.82385">
        <ele>145.3</ele>
        <time>2013-12-08T11:20:02Z</time>
      </trkpt>
      <trkpt lat="44.5874" lon="0.82377">
        <ele>151.06</ele>
        <time>2013-12-08T11:20:18Z</time>
      </trkpt>
      <trkpt lat="44.58707" lon="0.82395">
        <ele>151.06</ele>
        <time>2013-12-08T11:20:30Z</time>
      </trkpt>
      <trkpt lat="44.58661" lon="0.82439">
        <ele>149.14</ele>
        <time>2013-12-08T11:20:44Z</time>
      </trkpt>
      <trkpt lat="44.58657" lon="0.82441">
        <ele>149.14</ele>
        <time>2013-12-08T11:20:45Z</time>
      </trkpt>
      <trkpt lat="44.58576" lon="0.82491">
        <ele>149.14</ele>
        <time>2013-12-08T11:21:06Z</time>
      </trkpt>
      <trkpt lat="44.58573" lon="0.82483">
        <ele>148.66</ele>
        <time>2013-12-08T11:21:11Z</time>
      </trkpt>
    </trkseg>
  </trk>
</gpx>